MAS1158 WMKK-OEMA
Flight info
| Callsign | MAS1158 |
|---|---|
| Flight time | 8h 13m |
| Altitude | 36000 |
| Route | PUGER1D PUGER P574 MMV W117 BIA W101W GUNIM/N0486F380 N563 REXOD L883 UMILA N569 TOKRA DCT ITRUX Y511 ELONU ELONU1H |
| Aircraft | A388/J-SADE2E3FGHIJ3J4J5M1RWXY/LB1D1 |
Departure
| Time | 2026-05-08 09:24 |
|---|---|
| Airport | Kuala Lumpur International Airport (WMKK) |
Arrival
| Time | 2026-05-08 17:37 |
|---|---|
| Airport | Prince Mohammad Bin Abdulaziz Airport (OEMA) |
| Time | Latitude | Longitude | Altitude | Speed | Heading |
|---|---|---|---|---|---|
| 2026-05-08 07:44 | 2.74517 | 101.71581 | 78 ft | 0 kts | 326° |
| 2026-05-08 09:06 | 2.74507 | 101.71588 | 67 ft | 4 kts | 326° |
| 2026-05-08 09:06 | 2.74485 | 101.71603 | 69 ft | 4 kts | 326° |
| 2026-05-08 09:06 | 2.74467 | 101.71614 | 67 ft | 4 kts | 326° |
| 2026-05-08 09:06 | 2.74447 | 101.71626 | 67 ft | 4 kts | 4° |
| 2026-05-08 09:07 | 2.74434 | 101.71615 | 67 ft | 4 kts | 78° |
| 2026-05-08 09:07 | 2.74429 | 101.71589 | 67 ft | 4 kts | 71° |
| 2026-05-08 09:07 | 2.74424 | 101.71577 | 67 ft | 0 kts | 56° |
| 2026-05-08 09:12 | 2.74424 | 101.71578 | 78 ft | 1 kts | 56° |
| 2026-05-08 09:12 | 2.74433 | 101.71591 | 67 ft | 4 kts | 56° |
| 2026-05-08 09:13 | 2.74453 | 101.71621 | 67 ft | 7 kts | 56° |
| 2026-05-08 09:13 | 2.74484 | 101.71665 | 70 ft | 9 kts | 56° |
| 2026-05-08 09:13 | 2.74521 | 101.71721 | 68 ft | 10 kts | 56° |
| 2026-05-08 09:13 | 2.74564 | 101.71785 | 69 ft | 12 kts | 56° |
| 2026-05-08 09:14 | 2.74610 | 101.71854 | 67 ft | 13 kts | 57° |
| 2026-05-08 09:14 | 2.74658 | 101.71928 | 67 ft | 12 kts | 57° |
| 2026-05-08 09:14 | 2.74699 | 101.71989 | 87 ft | 9 kts | 57° |
| 2026-05-08 09:14 | 2.74736 | 101.72025 | 87 ft | 7 kts | 13° |
| 2026-05-08 09:15 | 2.74784 | 101.72013 | 86 ft | 8 kts | 324° |
| 2026-05-08 09:15 | 2.74840 | 101.71974 | 87 ft | 11 kts | 325° |
| 2026-05-08 09:15 | 2.74916 | 101.71922 | 86 ft | 16 kts | 326° |
| 2026-05-08 09:15 | 2.75055 | 101.71830 | 85 ft | 31 kts | 327° |
| 2026-05-08 09:16 | 2.75268 | 101.71689 | 75 ft | 42 kts | 326° |
| 2026-05-08 09:16 | 2.75518 | 101.71521 | 68 ft | 41 kts | 326° |
| 2026-05-08 09:16 | 2.75741 | 101.71372 | 75 ft | 36 kts | 325° |
| 2026-05-08 09:16 | 2.75936 | 101.71240 | 67 ft | 32 kts | 326° |
| 2026-05-08 09:17 | 2.76117 | 101.71119 | 66 ft | 30 kts | 326° |
| 2026-05-08 09:17 | 2.76287 | 101.71004 | 61 ft | 29 kts | 326° |
| 2026-05-08 09:17 | 2.76448 | 101.70895 | 64 ft | 27 kts | 326° |
| 2026-05-08 09:17 | 2.76600 | 101.70793 | 62 ft | 25 kts | 327° |
| 2026-05-08 09:18 | 2.76749 | 101.70695 | 61 ft | 30 kts | 325° |
| 2026-05-08 09:18 | 2.76959 | 101.70551 | 63 ft | 41 kts | 327° |
| 2026-05-08 09:18 | 2.77205 | 101.70390 | 60 ft | 40 kts | 326° |
| 2026-05-08 09:18 | 2.77424 | 101.70242 | 59 ft | 36 kts | 326° |
| 2026-05-08 09:19 | 2.77618 | 101.70111 | 61 ft | 24 kts | 326° |
| 2026-05-08 09:19 | 2.77712 | 101.70057 | 63 ft | 0 kts | 354° |
| 2026-05-08 09:19 | 2.77721 | 101.70057 | 63 ft | 2 kts | 7° |
| 2026-05-08 09:19 | 2.77732 | 101.70061 | 64 ft | 3 kts | 28° |
| 2026-05-08 09:20 | 2.77756 | 101.70074 | 61 ft | 2 kts | 46° |
| 2026-05-08 09:20 | 2.77757 | 101.70075 | 61 ft | 0 kts | 54° |
| 2026-05-08 09:21 | 2.77765 | 101.70086 | 59 ft | 4 kts | 54° |
| 2026-05-08 09:22 | 2.77776 | 101.70235 | 60 ft | 0 kts | 145° |
| 2026-05-08 09:23 | 2.77677 | 101.70304 | 59 ft | 44 kts | 145° |
| 2026-05-08 09:23 | 2.77210 | 101.70615 | 61 ft | 114 kts | 147° |
| 2026-05-08 09:23 | 2.76385 | 101.71173 | 63 ft | 164 kts | 146° |
| 2026-05-08 09:23 | 2.75392 | 101.71850 | 201 ft | 183 kts | 145° |
| 2026-05-08 09:24 | 2.74313 | 101.72500 | 720 ft | 178 kts | 148° |
| 2026-05-08 09:24 | 2.73293 | 101.73162 | 1299 ft | 171 kts | 146° |
| 2026-05-08 09:24 | 2.72301 | 101.73859 | 1768 ft | 176 kts | 146° |
| 2026-05-08 09:24 | 2.71410 | 101.74735 | 1913 ft | 193 kts | 121° |
| 2026-05-08 09:25 | 2.70860 | 101.76005 | 2054 ft | 207 kts | 111° |
| 2026-05-08 09:25 | 2.70342 | 101.77445 | 2279 ft | 230 kts | 112° |
| 2026-05-08 09:25 | 2.69700 | 101.79002 | 2531 ft | 252 kts | 115° |
| 2026-05-08 09:25 | 2.68934 | 101.80630 | 2990 ft | 263 kts | 117° |
| 2026-05-08 09:26 | 2.68105 | 101.82284 | 3653 ft | 266 kts | 118° |
| 2026-05-08 09:26 | 2.67258 | 101.83935 | 4323 ft | 269 kts | 118° |
| 2026-05-08 09:26 | 2.66391 | 101.85616 | 4986 ft | 272 kts | 118° |
| 2026-05-08 09:26 | 2.65528 | 101.87305 | 5614 ft | 276 kts | 114° |
| 2026-05-08 09:27 | 2.65117 | 101.89193 | 6219 ft | 280 kts | 88° |
| 2026-05-08 09:27 | 2.65582 | 101.91084 | 6838 ft | 283 kts | 63° |
| 2026-05-08 09:27 | 2.66816 | 101.92590 | 7459 ft | 286 kts | 39° |
| 2026-05-08 09:27 | 2.68450 | 101.93754 | 8074 ft | 288 kts | 34° |
| 2026-05-08 09:28 | 2.70152 | 101.94831 | 8677 ft | 291 kts | 27° |
| 2026-05-08 09:28 | 2.72109 | 101.95346 | 9270 ft | 294 kts | 1° |
| 2026-05-08 09:28 | 2.74127 | 101.94987 | 9853 ft | 299 kts | 337° |
| 2026-05-08 09:28 | 2.75950 | 101.93952 | 10272 ft | 307 kts | 329° |
| 2026-05-08 09:29 | 2.77825 | 101.92795 | 10425 ft | 325 kts | 329° |
| 2026-05-08 09:29 | 2.79771 | 101.91606 | 10564 ft | 340 kts | 329° |
| 2026-05-08 09:29 | 2.81838 | 101.90360 | 10801 ft | 352 kts | 330° |
| 2026-05-08 09:29 | 2.83942 | 101.89100 | 11314 ft | 354 kts | 330° |
| 2026-05-08 09:30 | 2.86075 | 101.87826 | 11833 ft | 357 kts | 330° |
| 2026-05-08 09:30 | 2.88212 | 101.86552 | 12350 ft | 360 kts | 330° |
| 2026-05-08 09:30 | 2.90373 | 101.85264 | 12856 ft | 363 kts | 330° |
| 2026-05-08 09:30 | 2.92559 | 101.83960 | 13372 ft | 366 kts | 330° |
| 2026-05-08 09:31 | 2.94751 | 101.82654 | 13825 ft | 369 kts | 330° |
| 2026-05-08 09:31 | 2.96969 | 101.81331 | 14293 ft | 372 kts | 330° |
| 2026-05-08 09:31 | 2.99197 | 101.80002 | 14737 ft | 375 kts | 330° |
| 2026-05-08 09:31 | 3.01448 | 101.78659 | 15183 ft | 377 kts | 330° |
| 2026-05-08 09:32 | 3.03703 | 101.77315 | 15627 ft | 380 kts | 330° |
| 2026-05-08 09:32 | 3.05964 | 101.75965 | 16063 ft | 383 kts | 330° |
| 2026-05-08 09:32 | 3.08065 | 101.74301 | 16457 ft | 389 kts | 313° |
| 2026-05-08 09:32 | 3.09587 | 101.72057 | 16905 ft | 393 kts | 295° |
| 2026-05-08 09:33 | 3.10408 | 101.69453 | 17319 ft | 397 kts | 282° |
| 2026-05-08 09:33 | 3.10868 | 101.66705 | 17735 ft | 400 kts | 278° |
| 2026-05-08 09:33 | 3.11270 | 101.63952 | 18123 ft | 403 kts | 279° |
| 2026-05-08 09:33 | 3.11708 | 101.61171 | 18475 ft | 405 kts | 279° |
| 2026-05-08 09:34 | 3.12186 | 101.58377 | 18841 ft | 408 kts | 280° |
| 2026-05-08 09:34 | 3.12691 | 101.55576 | 19179 ft | 410 kts | 281° |
| 2026-05-08 09:34 | 3.13204 | 101.52801 | 19529 ft | 412 kts | 281° |
| 2026-05-08 09:34 | 3.13734 | 101.49957 | 19661 ft | 421 kts | 281° |
| 2026-05-08 09:35 | 3.14277 | 101.47043 | 19748 ft | 430 kts | 281° |
| 2026-05-08 09:35 | 3.14831 | 101.44070 | 19832 ft | 439 kts | 281° |
| 2026-05-08 09:35 | 3.15395 | 101.41036 | 19923 ft | 447 kts | 281° |
| 2026-05-08 09:35 | 3.15968 | 101.37952 | 20018 ft | 454 kts | 281° |
| 2026-05-08 09:36 | 3.16541 | 101.34870 | 20246 ft | 457 kts | 281° |
| 2026-05-08 09:36 | 3.17130 | 101.31699 | 20524 ft | 459 kts | 281° |
| 2026-05-08 09:36 | 3.17714 | 101.28549 | 20780 ft | 461 kts | 281° |
| 2026-05-08 09:36 | 3.18299 | 101.25397 | 21044 ft | 462 kts | 281° |
| 2026-05-08 09:37 | 3.18885 | 101.22242 | 21312 ft | 464 kts | 281° |
| 2026-05-08 09:37 | 3.19479 | 101.19042 | 21560 ft | 466 kts | 281° |
| 2026-05-08 09:37 | 3.20072 | 101.15847 | 21823 ft | 468 kts | 281° |
| 2026-05-08 09:37 | 3.20666 | 101.12643 | 22080 ft | 470 kts | 281° |
| 2026-05-08 09:38 | 3.21265 | 101.09413 | 22330 ft | 472 kts | 281° |
| 2026-05-08 09:38 | 3.21865 | 101.06179 | 22575 ft | 474 kts | 281° |
| 2026-05-08 09:38 | 3.22467 | 101.02934 | 22820 ft | 476 kts | 281° |
| 2026-05-08 09:38 | 3.23071 | 100.99677 | 23081 ft | 478 kts | 281° |
| 2026-05-08 09:39 | 3.23754 | 100.96429 | 23599 ft | 470 kts | 285° |
| 2026-05-08 09:39 | 3.24525 | 100.93307 | 24523 ft | 452 kts | 284° |
| 2026-05-08 09:39 | 3.25255 | 100.90279 | 25028 ft | 448 kts | 284° |
| 2026-05-08 09:39 | 3.25986 | 100.87237 | 25207 ft | 452 kts | 284° |
| 2026-05-08 09:40 | 3.26721 | 100.84179 | 25474 ft | 453 kts | 284° |
| 2026-05-08 09:40 | 3.27465 | 100.81092 | 25733 ft | 455 kts | 284° |
| 2026-05-08 09:40 | 3.28199 | 100.78045 | 25987 ft | 457 kts | 284° |
| 2026-05-08 09:40 | 3.28946 | 100.74950 | 26245 ft | 459 kts | 284° |
| 2026-05-08 09:41 | 3.29695 | 100.71844 | 26526 ft | 460 kts | 284° |
| 2026-05-08 09:41 | 3.30449 | 100.68722 | 26777 ft | 462 kts | 284° |
| 2026-05-08 09:41 | 3.31206 | 100.65582 | 27058 ft | 464 kts | 284° |
| 2026-05-08 09:41 | 3.31963 | 100.62443 | 27338 ft | 466 kts | 284° |
| 2026-05-08 09:42 | 3.32728 | 100.59273 | 27614 ft | 468 kts | 284° |
| 2026-05-08 09:42 | 3.33491 | 100.56107 | 27904 ft | 470 kts | 284° |
| 2026-05-08 09:42 | 3.34260 | 100.52919 | 28191 ft | 472 kts | 284° |
| 2026-05-08 09:42 | 3.35033 | 100.49712 | 28497 ft | 474 kts | 284° |
| 2026-05-08 09:43 | 3.35807 | 100.46500 | 28793 ft | 477 kts | 284° |
| 2026-05-08 09:43 | 3.36585 | 100.43272 | 29121 ft | 479 kts | 284° |
| 2026-05-08 09:43 | 3.37366 | 100.40031 | 29441 ft | 481 kts | 284° |
| 2026-05-08 09:43 | 3.38153 | 100.36761 | 29759 ft | 483 kts | 284° |
| 2026-05-08 09:44 | 3.38945 | 100.33475 | 30066 ft | 485 kts | 284° |
| 2026-05-08 09:44 | 3.39866 | 100.30223 | 30369 ft | 486 kts | 290° |
| 2026-05-08 09:44 | 3.41156 | 100.27093 | 30683 ft | 487 kts | 297° |
| 2026-05-08 09:44 | 3.42758 | 100.24111 | 30970 ft | 488 kts | 301° |
| 2026-05-08 09:45 | 3.44414 | 100.21126 | 31279 ft | 490 kts | 300° |
| 2026-05-08 09:45 | 3.46039 | 100.18163 | 31586 ft | 492 kts | 300° |
| 2026-05-08 09:45 | 3.47704 | 100.15119 | 31896 ft | 494 kts | 300° |
| 2026-05-08 09:45 | 3.49341 | 100.12127 | 32181 ft | 496 kts | 300° |
| 2026-05-08 09:46 | 3.51003 | 100.09092 | 32497 ft | 498 kts | 300° |
| 2026-05-08 09:46 | 3.52672 | 100.06044 | 32790 ft | 500 kts | 300° |
| 2026-05-08 09:46 | 3.54350 | 100.02985 | 33092 ft | 502 kts | 300° |
| 2026-05-08 09:46 | 3.56036 | 99.99909 | 33380 ft | 505 kts | 300° |
| 2026-05-08 09:47 | 3.57726 | 99.96825 | 33686 ft | 506 kts | 300° |
| 2026-05-08 09:47 | 3.59429 | 99.93717 | 33957 ft | 508 kts | 300° |
| 2026-05-08 09:47 | 3.61133 | 99.90607 | 34213 ft | 510 kts | 300° |
| 2026-05-08 09:47 | 3.62842 | 99.87487 | 34489 ft | 512 kts | 300° |
| 2026-05-08 09:48 | 3.64544 | 99.84380 | 34815 ft | 511 kts | 300° |
| 2026-05-08 09:48 | 3.66232 | 99.81298 | 35204 ft | 510 kts | 299° |
| 2026-05-08 09:48 | 3.67934 | 99.78171 | 35613 ft | 508 kts | 298° |
| 2026-05-08 09:48 | 3.69549 | 99.75014 | 35806 ft | 509 kts | 297° |
| 2026-05-08 09:49 | 3.71126 | 99.71830 | 35817 ft | 511 kts | 297° |
| 2026-05-08 09:49 | 3.74288 | 99.65454 | 35811 ft | 511 kts | 297° |
| 2026-05-08 09:50 | 3.77490 | 99.59069 | 35813 ft | 519 kts | 297° |
| 2026-05-08 09:50 | 3.80794 | 99.52506 | 35813 ft | 534 kts | 297° |
| 2026-05-08 09:51 | 3.84140 | 99.45856 | 35813 ft | 534 kts | 297° |
| 2026-05-08 09:51 | 3.87478 | 99.39221 | 35816 ft | 534 kts | 297° |
| 2026-05-08 09:52 | 3.90826 | 99.32565 | 35820 ft | 535 kts | 297° |
| 2026-05-08 09:52 | 3.94171 | 99.25911 | 35822 ft | 534 kts | 297° |
| 2026-05-08 09:53 | 3.97514 | 99.19262 | 35824 ft | 535 kts | 297° |
| 2026-05-08 09:53 | 4.00859 | 99.12605 | 35827 ft | 535 kts | 297° |
| 2026-05-08 09:54 | 4.04205 | 99.05946 | 35827 ft | 536 kts | 297° |
| 2026-05-08 09:54 | 4.07560 | 98.99269 | 35823 ft | 536 kts | 297° |
| 2026-05-08 09:55 | 4.10892 | 98.92634 | 35831 ft | 536 kts | 297° |
| 2026-05-08 09:55 | 4.14242 | 98.85960 | 35828 ft | 536 kts | 297° |
| 2026-05-08 09:56 | 4.17594 | 98.79281 | 35824 ft | 537 kts | 297° |
| 2026-05-08 09:56 | 4.20951 | 98.72591 | 35819 ft | 538 kts | 297° |
| 2026-05-08 09:57 | 4.25994 | 98.62537 | 35818 ft | 538 kts | 297° |
| 2026-05-08 09:57 | 4.29357 | 98.55829 | 35816 ft | 539 kts | 297° |
| 2026-05-08 09:58 | 4.32722 | 98.49116 | 35818 ft | 540 kts | 297° |
| 2026-05-08 09:58 | 4.36091 | 98.42394 | 35806 ft | 540 kts | 297° |
| 2026-05-08 09:59 | 4.39469 | 98.35652 | 35804 ft | 540 kts | 297° |
| 2026-05-08 09:59 | 4.42837 | 98.28928 | 35823 ft | 540 kts | 297° |
| 2026-05-08 10:00 | 4.46205 | 98.22201 | 35809 ft | 540 kts | 297° |
| 2026-05-08 10:00 | 4.49570 | 98.15480 | 35810 ft | 539 kts | 297° |
| 2026-05-08 10:01 | 4.52935 | 98.08755 | 35830 ft | 539 kts | 297° |
| 2026-05-08 10:01 | 4.56244 | 98.02143 | 35831 ft | 539 kts | 297° |
| 2026-05-08 10:02 | 4.59634 | 97.95366 | 35835 ft | 539 kts | 297° |
| 2026-05-08 10:02 | 4.63000 | 97.88635 | 35840 ft | 539 kts | 297° |
| 2026-05-08 10:03 | 4.66358 | 97.81918 | 35830 ft | 540 kts | 297° |
| 2026-05-08 10:03 | 4.69709 | 97.75213 | 35833 ft | 540 kts | 297° |
| 2026-05-08 10:04 | 4.73074 | 97.68478 | 35836 ft | 540 kts | 297° |
| 2026-05-08 10:04 | 4.76442 | 97.61736 | 35847 ft | 541 kts | 297° |
| 2026-05-08 10:05 | 4.79237 | 97.56138 | 35839 ft | 541 kts | 297° |
| 2026-05-08 10:05 | 4.82599 | 97.49402 | 35844 ft | 540 kts | 297° |
| 2026-05-08 10:06 | 4.85958 | 97.42672 | 35843 ft | 539 kts | 297° |
| 2026-05-08 10:06 | 4.89318 | 97.35938 | 35846 ft | 539 kts | 297° |
| 2026-05-08 10:07 | 4.92671 | 97.29215 | 35848 ft | 539 kts | 297° |
| 2026-05-08 10:07 | 4.96022 | 97.22493 | 35856 ft | 538 kts | 297° |
| 2026-05-08 10:08 | 4.99392 | 97.15733 | 35869 ft | 539 kts | 297° |
| 2026-05-08 10:08 | 5.02719 | 97.09057 | 35857 ft | 538 kts | 297° |
| 2026-05-08 10:09 | 5.06063 | 97.02343 | 35851 ft | 538 kts | 297° |
| 2026-05-08 10:09 | 5.09412 | 96.95618 | 35853 ft | 538 kts | 297° |
| 2026-05-08 10:10 | 5.12759 | 96.88896 | 35849 ft | 538 kts | 297° |
| 2026-05-08 10:10 | 5.16103 | 96.82177 | 35848 ft | 538 kts | 297° |
| 2026-05-08 10:11 | 5.19457 | 96.75437 | 35844 ft | 539 kts | 297° |
| 2026-05-08 10:11 | 5.22804 | 96.68708 | 35842 ft | 539 kts | 297° |
| 2026-05-08 10:12 | 5.26148 | 96.61982 | 35858 ft | 539 kts | 297° |
| 2026-05-08 10:12 | 5.29495 | 96.55248 | 35855 ft | 539 kts | 297° |
| 2026-05-08 10:13 | 5.32840 | 96.48516 | 35852 ft | 539 kts | 297° |
| 2026-05-08 10:13 | 5.36185 | 96.41782 | 35836 ft | 539 kts | 297° |
| 2026-05-08 10:14 | 5.39527 | 96.35051 | 35828 ft | 539 kts | 297° |
| 2026-05-08 10:14 | 5.42871 | 96.28315 | 35823 ft | 539 kts | 297° |
| 2026-05-08 10:15 | 5.46225 | 96.21556 | 35832 ft | 539 kts | 297° |
| 2026-05-08 10:15 | 5.49566 | 96.14822 | 35828 ft | 540 kts | 297° |
| 2026-05-08 10:16 | 5.52914 | 96.08072 | 35844 ft | 540 kts | 297° |
| 2026-05-08 10:16 | 5.56257 | 96.01327 | 35844 ft | 540 kts | 297° |
| 2026-05-08 10:17 | 5.59605 | 95.94571 | 35827 ft | 541 kts | 297° |
| 2026-05-08 10:17 | 5.62953 | 95.87813 | 35823 ft | 540 kts | 297° |
| 2026-05-08 10:18 | 5.66303 | 95.81048 | 35815 ft | 541 kts | 297° |
| 2026-05-08 10:18 | 5.69629 | 95.74331 | 35819 ft | 541 kts | 297° |
| 2026-05-08 10:19 | 5.72982 | 95.67554 | 35818 ft | 541 kts | 297° |
| 2026-05-08 10:20 | 5.78012 | 95.57386 | 35826 ft | 541 kts | 297° |
| 2026-05-08 10:20 | 5.81359 | 95.50616 | 35826 ft | 542 kts | 297° |
| 2026-05-08 10:21 | 5.84712 | 95.43832 | 35814 ft | 541 kts | 297° |
| 2026-05-08 10:21 | 5.88058 | 95.37060 | 35814 ft | 541 kts | 297° |
| 2026-05-08 10:22 | 5.91398 | 95.30297 | 35813 ft | 540 kts | 297° |
| 2026-05-08 10:22 | 5.94738 | 95.23533 | 35816 ft | 540 kts | 297° |
| 2026-05-08 10:23 | 5.98078 | 95.16764 | 35823 ft | 541 kts | 297° |
| 2026-05-08 10:23 | 6.01417 | 95.09996 | 35832 ft | 540 kts | 297° |
| 2026-05-08 10:24 | 6.04751 | 95.03236 | 35841 ft | 540 kts | 297° |
| 2026-05-08 10:24 | 6.08088 | 94.96468 | 35841 ft | 541 kts | 297° |
| 2026-05-08 10:25 | 6.11425 | 94.89695 | 35821 ft | 541 kts | 297° |
| 2026-05-08 10:25 | 6.14755 | 94.82937 | 35822 ft | 540 kts | 297° |
| 2026-05-08 10:26 | 6.18077 | 94.76190 | 35821 ft | 541 kts | 297° |
| 2026-05-08 10:26 | 6.21411 | 94.69416 | 35826 ft | 541 kts | 297° |
| 2026-05-08 10:27 | 6.24750 | 94.62630 | 35821 ft | 541 kts | 297° |
| 2026-05-08 10:27 | 6.28087 | 94.55848 | 35839 ft | 542 kts | 297° |
| 2026-05-08 10:28 | 6.31427 | 94.49053 | 35841 ft | 542 kts | 297° |
| 2026-05-08 10:28 | 6.34767 | 94.42257 | 35839 ft | 542 kts | 297° |
| 2026-05-08 10:29 | 6.38104 | 94.35465 | 35840 ft | 542 kts | 297° |
| 2026-05-08 10:29 | 6.41439 | 94.28673 | 35823 ft | 542 kts | 296° |
| 2026-05-08 10:30 | 6.44779 | 94.21869 | 35821 ft | 541 kts | 296° |
| 2026-05-08 10:30 | 6.48109 | 94.15082 | 35820 ft | 541 kts | 296° |
| 2026-05-08 10:31 | 6.51443 | 94.08286 | 35821 ft | 541 kts | 296° |
| 2026-05-08 10:31 | 6.54777 | 94.01485 | 35836 ft | 542 kts | 296° |
| 2026-05-08 10:32 | 6.58091 | 93.94723 | 35839 ft | 542 kts | 296° |
| 2026-05-08 10:32 | 6.61425 | 93.87918 | 35836 ft | 543 kts | 296° |
| 2026-05-08 10:33 | 6.64784 | 93.81058 | 35841 ft | 544 kts | 296° |
| 2026-05-08 10:33 | 6.68097 | 93.74290 | 35830 ft | 542 kts | 296° |
| 2026-05-08 10:34 | 6.71432 | 93.67472 | 35826 ft | 542 kts | 297° |
| 2026-05-08 10:34 | 6.74770 | 93.60649 | 35826 ft | 542 kts | 297° |
| 2026-05-08 10:35 | 6.78096 | 93.53845 | 35823 ft | 541 kts | 297° |
| 2026-05-08 10:35 | 6.81418 | 93.47046 | 35822 ft | 541 kts | 297° |
| 2026-05-08 10:36 | 6.84711 | 93.40304 | 35818 ft | 540 kts | 297° |
| 2026-05-08 10:36 | 6.88027 | 93.33513 | 35823 ft | 540 kts | 297° |
| 2026-05-08 10:37 | 6.91336 | 93.26732 | 35820 ft | 539 kts | 297° |
| 2026-05-08 10:37 | 6.94643 | 93.19953 | 35821 ft | 539 kts | 297° |
| 2026-05-08 10:38 | 6.97945 | 93.13181 | 35826 ft | 539 kts | 297° |
| 2026-05-08 10:38 | 7.01244 | 93.06413 | 35817 ft | 538 kts | 297° |
| 2026-05-08 10:39 | 7.04539 | 92.99650 | 35819 ft | 538 kts | 297° |
| 2026-05-08 10:39 | 7.07811 | 92.92931 | 35819 ft | 537 kts | 297° |
| 2026-05-08 10:40 | 7.11104 | 92.86167 | 35812 ft | 537 kts | 297° |
| 2026-05-08 10:40 | 7.14391 | 92.79411 | 35819 ft | 537 kts | 296° |
| 2026-05-08 10:41 | 7.17680 | 92.72649 | 35814 ft | 537 kts | 296° |
| 2026-05-08 10:41 | 7.20963 | 92.65895 | 35815 ft | 537 kts | 296° |
| 2026-05-08 10:42 | 7.24249 | 92.59132 | 35813 ft | 537 kts | 296° |
| 2026-05-08 10:42 | 7.27531 | 92.52376 | 35812 ft | 537 kts | 296° |
| 2026-05-08 10:43 | 7.30812 | 92.45617 | 35814 ft | 537 kts | 296° |
| 2026-05-08 10:43 | 7.34071 | 92.38900 | 35809 ft | 538 kts | 296° |
| 2026-05-08 10:44 | 7.37377 | 92.32083 | 35810 ft | 537 kts | 296° |
| 2026-05-08 10:44 | 7.40662 | 92.25309 | 35809 ft | 538 kts | 296° |
| 2026-05-08 10:45 | 7.43941 | 92.18540 | 35810 ft | 537 kts | 296° |
| 2026-05-08 10:45 | 7.47199 | 92.11815 | 35804 ft | 538 kts | 296° |
| 2026-05-08 10:46 | 7.50478 | 92.05042 | 35823 ft | 538 kts | 296° |
| 2026-05-08 10:46 | 7.53761 | 91.98257 | 35803 ft | 538 kts | 296° |
| 2026-05-08 10:47 | 7.56492 | 91.92612 | 35809 ft | 538 kts | 296° |
| 2026-05-08 10:47 | 7.59772 | 91.85827 | 35809 ft | 539 kts | 296° |
| 2026-05-08 10:48 | 7.63587 | 91.77934 | 35807 ft | 539 kts | 296° |
| 2026-05-08 10:48 | 7.66333 | 91.72247 | 35812 ft | 539 kts | 296° |
| 2026-05-08 10:49 | 7.69596 | 91.65489 | 35809 ft | 539 kts | 296° |
| 2026-05-08 10:49 | 7.72879 | 91.58687 | 35808 ft | 539 kts | 296° |
| 2026-05-08 10:50 | 7.76164 | 91.51875 | 35813 ft | 539 kts | 296° |
| 2026-05-08 10:50 | 7.79441 | 91.45078 | 35812 ft | 539 kts | 296° |
| 2026-05-08 10:51 | 7.82722 | 91.38269 | 35812 ft | 539 kts | 296° |
| 2026-05-08 10:51 | 7.86004 | 91.31455 | 35804 ft | 540 kts | 296° |
| 2026-05-08 10:52 | 7.89282 | 91.24646 | 35809 ft | 540 kts | 296° |
| 2026-05-08 10:52 | 7.92554 | 91.17845 | 35805 ft | 540 kts | 296° |
| 2026-05-08 10:53 | 7.95837 | 91.11018 | 35805 ft | 540 kts | 296° |
| 2026-05-08 10:53 | 7.99119 | 91.04190 | 35800 ft | 540 kts | 296° |
| 2026-05-08 10:54 | 8.02381 | 90.97402 | 35801 ft | 541 kts | 296° |
| 2026-05-08 10:54 | 8.05663 | 90.90567 | 35806 ft | 542 kts | 296° |
| 2026-05-08 10:55 | 8.08952 | 90.83713 | 35813 ft | 542 kts | 296° |
| 2026-05-08 10:55 | 8.12240 | 90.76860 | 35820 ft | 542 kts | 296° |
| 2026-05-08 10:56 | 8.15523 | 90.70011 | 35820 ft | 542 kts | 296° |
| 2026-05-08 10:56 | 8.18805 | 90.63164 | 35800 ft | 542 kts | 296° |
| 2026-05-08 10:57 | 8.22070 | 90.56346 | 35802 ft | 542 kts | 296° |
| 2026-05-08 10:57 | 8.26993 | 90.46063 | 35808 ft | 542 kts | 296° |
| 2026-05-08 10:58 | 8.30273 | 90.39206 | 35801 ft | 542 kts | 296° |
| 2026-05-08 10:58 | 8.33548 | 90.32354 | 35818 ft | 542 kts | 296° |
| 2026-05-08 10:59 | 8.36823 | 90.25501 | 35805 ft | 542 kts | 296° |
| 2026-05-08 10:59 | 8.40076 | 90.18690 | 35809 ft | 542 kts | 296° |
| 2026-05-08 11:00 | 8.43346 | 90.11839 | 35809 ft | 542 kts | 296° |
| 2026-05-08 11:00 | 8.46616 | 90.04985 | 35804 ft | 541 kts | 296° |
| 2026-05-08 11:01 | 8.49880 | 89.98140 | 35821 ft | 541 kts | 296° |
| 2026-05-08 11:01 | 8.53145 | 89.91290 | 35805 ft | 541 kts | 296° |
| 2026-05-08 11:02 | 8.58030 | 89.81032 | 35821 ft | 541 kts | 296° |
| 2026-05-08 11:03 | 8.61290 | 89.74183 | 35817 ft | 540 kts | 296° |
| 2026-05-08 11:03 | 8.64550 | 89.67330 | 35800 ft | 540 kts | 296° |
| 2026-05-08 11:04 | 8.67803 | 89.60487 | 35806 ft | 540 kts | 296° |
| 2026-05-08 11:04 | 8.71057 | 89.53638 | 35800 ft | 539 kts | 296° |
| 2026-05-08 11:04 | 8.72637 | 89.50310 | 35818 ft | 526 kts | 296° |
| 2026-05-08 11:05 | 8.74200 | 89.47017 | 35819 ft | 515 kts | 296° |
| 2026-05-08 11:05 | 8.77298 | 89.40490 | 35800 ft | 516 kts | 296° |
| 2026-05-08 11:06 | 8.80403 | 89.33947 | 35805 ft | 516 kts | 296° |
| 2026-05-08 11:06 | 8.83508 | 89.27399 | 35800 ft | 516 kts | 296° |
| 2026-05-08 11:07 | 8.86611 | 89.20850 | 35802 ft | 516 kts | 296° |
| 2026-05-08 11:07 | 8.89711 | 89.14304 | 35795 ft | 515 kts | 296° |
| 2026-05-08 11:08 | 8.92801 | 89.07777 | 35790 ft | 513 kts | 296° |
| 2026-05-08 11:08 | 8.95860 | 89.01311 | 35786 ft | 513 kts | 296° |
| 2026-05-08 11:09 | 8.98935 | 88.94808 | 35782 ft | 512 kts | 296° |
| 2026-05-08 11:09 | 9.02006 | 88.88310 | 35780 ft | 512 kts | 296° |
| 2026-05-08 11:10 | 9.05081 | 88.81801 | 35786 ft | 513 kts | 296° |
| 2026-05-08 11:10 | 9.08159 | 88.75280 | 35787 ft | 513 kts | 296° |
| 2026-05-08 11:11 | 9.11242 | 88.68747 | 35803 ft | 514 kts | 296° |
| 2026-05-08 11:11 | 9.14316 | 88.62228 | 35796 ft | 515 kts | 296° |
| 2026-05-08 11:12 | 9.17417 | 88.55649 | 35811 ft | 516 kts | 296° |
| 2026-05-08 11:12 | 9.20503 | 88.49098 | 35812 ft | 516 kts | 296° |
| 2026-05-08 11:13 | 9.23597 | 88.42527 | 35810 ft | 516 kts | 296° |
| 2026-05-08 11:13 | 9.26683 | 88.35966 | 35814 ft | 516 kts | 296° |
| 2026-05-08 11:14 | 9.29749 | 88.29446 | 35810 ft | 516 kts | 296° |
| 2026-05-08 11:14 | 9.32836 | 88.22880 | 35810 ft | 516 kts | 296° |
| 2026-05-08 11:15 | 9.35926 | 88.16302 | 36192 ft | 518 kts | 296° |
| 2026-05-08 11:15 | 9.37466 | 88.13021 | 36629 ft | 516 kts | 296° |
| 2026-05-08 11:15 | 9.39007 | 88.09738 | 37033 ft | 515 kts | 296° |
| 2026-05-08 11:15 | 9.40542 | 88.06466 | 37427 ft | 514 kts | 296° |
| 2026-05-08 11:16 | 9.42078 | 88.03193 | 37756 ft | 514 kts | 296° |
| 2026-05-08 11:16 | 9.45137 | 87.96670 | 37802 ft | 508 kts | 296° |
| 2026-05-08 11:17 | 9.48169 | 87.90201 | 37800 ft | 510 kts | 296° |
| 2026-05-08 11:17 | 9.51216 | 87.83696 | 37802 ft | 510 kts | 296° |
| 2026-05-08 11:18 | 9.54235 | 87.77246 | 37798 ft | 510 kts | 296° |
| 2026-05-08 11:18 | 9.57292 | 87.70713 | 37804 ft | 510 kts | 296° |
| 2026-05-08 11:19 | 9.60329 | 87.64218 | 37807 ft | 510 kts | 296° |
| 2026-05-08 11:19 | 9.63367 | 87.57716 | 37810 ft | 510 kts | 296° |
| 2026-05-08 11:20 | 9.66385 | 87.51254 | 37807 ft | 510 kts | 296° |
| 2026-05-08 11:20 | 9.69421 | 87.44751 | 37804 ft | 510 kts | 296° |
| 2026-05-08 11:21 | 9.72456 | 87.38245 | 37800 ft | 510 kts | 296° |
| 2026-05-08 11:21 | 9.75487 | 87.31744 | 37798 ft | 510 kts | 296° |
| 2026-05-08 11:22 | 9.78513 | 87.25250 | 37796 ft | 510 kts | 296° |
| 2026-05-08 11:22 | 9.81543 | 87.18742 | 37789 ft | 510 kts | 296° |
| 2026-05-08 11:23 | 9.84575 | 87.12230 | 37794 ft | 510 kts | 295° |
| 2026-05-08 11:23 | 9.87603 | 87.05718 | 37791 ft | 510 kts | 295° |
| 2026-05-08 11:24 | 9.90629 | 86.99208 | 37792 ft | 511 kts | 295° |
| 2026-05-08 11:24 | 9.93637 | 86.92735 | 37792 ft | 511 kts | 295° |
| 2026-05-08 11:25 | 9.96667 | 86.86208 | 37794 ft | 511 kts | 295° |
| 2026-05-08 11:25 | 9.99700 | 86.79671 | 37793 ft | 512 kts | 295° |
| 2026-05-08 11:26 | 10.02730 | 86.73137 | 37796 ft | 512 kts | 295° |
| 2026-05-08 11:26 | 10.05764 | 86.66591 | 37798 ft | 512 kts | 295° |
| 2026-05-08 11:27 | 10.08796 | 86.60045 | 37796 ft | 512 kts | 295° |
| 2026-05-08 11:27 | 10.11824 | 86.53502 | 37797 ft | 512 kts | 295° |
| 2026-05-08 11:28 | 10.14850 | 86.46963 | 37794 ft | 512 kts | 295° |
| 2026-05-08 11:28 | 10.17879 | 86.40410 | 37791 ft | 512 kts | 295° |
| 2026-05-08 11:29 | 10.20905 | 86.33861 | 37789 ft | 512 kts | 295° |
| 2026-05-08 11:29 | 10.23907 | 86.27360 | 37788 ft | 512 kts | 295° |
| 2026-05-08 11:30 | 10.26931 | 86.20807 | 37783 ft | 512 kts | 295° |
| 2026-05-08 11:30 | 10.29953 | 86.14255 | 37763 ft | 512 kts | 295° |
| 2026-05-08 11:31 | 10.32979 | 86.07689 | 37768 ft | 513 kts | 295° |
| 2026-05-08 11:31 | 10.36014 | 86.01099 | 37768 ft | 514 kts | 295° |
| 2026-05-08 11:32 | 10.38535 | 85.95622 | 37773 ft | 515 kts | 295° |
| 2026-05-08 11:32 | 10.41574 | 85.89017 | 37777 ft | 517 kts | 295° |
| 2026-05-08 11:33 | 10.44619 | 85.82394 | 37779 ft | 518 kts | 295° |
| 2026-05-08 11:33 | 10.47672 | 85.75749 | 37786 ft | 519 kts | 295° |
| 2026-05-08 11:34 | 10.50728 | 85.69095 | 37795 ft | 520 kts | 295° |
| 2026-05-08 11:34 | 10.53782 | 85.62438 | 37802 ft | 519 kts | 295° |
| 2026-05-08 11:35 | 10.56816 | 85.55823 | 37800 ft | 519 kts | 295° |
| 2026-05-08 11:35 | 10.59852 | 85.49197 | 37803 ft | 517 kts | 295° |
| 2026-05-08 11:36 | 10.62892 | 85.42559 | 37789 ft | 516 kts | 294° |
| 2026-05-08 11:36 | 10.65913 | 85.35958 | 37779 ft | 514 kts | 294° |
| 2026-05-08 11:37 | 10.68928 | 85.29366 | 37782 ft | 513 kts | 294° |
| 2026-05-08 11:37 | 10.71930 | 85.22798 | 37774 ft | 511 kts | 294° |
| 2026-05-08 11:38 | 10.74923 | 85.16244 | 37772 ft | 510 kts | 294° |
| 2026-05-08 11:38 | 10.77905 | 85.09712 | 37772 ft | 509 kts | 294° |
| 2026-05-08 11:39 | 10.80864 | 85.03224 | 37769 ft | 508 kts | 294° |
| 2026-05-08 11:39 | 10.83830 | 84.96720 | 37771 ft | 506 kts | 294° |
| 2026-05-08 11:40 | 10.86791 | 84.90217 | 37769 ft | 505 kts | 294° |
| 2026-05-08 11:40 | 10.89746 | 84.83726 | 37761 ft | 505 kts | 294° |
| 2026-05-08 11:41 | 10.92698 | 84.77237 | 37761 ft | 505 kts | 294° |
| 2026-05-08 11:41 | 10.95648 | 84.70751 | 37758 ft | 505 kts | 294° |
| 2026-05-08 11:42 | 10.98597 | 84.64260 | 37761 ft | 506 kts | 294° |
| 2026-05-08 11:42 | 11.01549 | 84.57758 | 37765 ft | 506 kts | 294° |
| 2026-05-08 11:43 | 11.04504 | 84.51246 | 37768 ft | 507 kts | 294° |
| 2026-05-08 11:43 | 11.07456 | 84.44735 | 37772 ft | 507 kts | 294° |
| 2026-05-08 11:44 | 11.10413 | 84.38209 | 37781 ft | 507 kts | 294° |
| 2026-05-08 11:44 | 11.13354 | 84.31716 | 37778 ft | 508 kts | 294° |
| 2026-05-08 11:45 | 11.16310 | 84.25183 | 37781 ft | 508 kts | 294° |
| 2026-05-08 11:45 | 11.19264 | 84.18650 | 37777 ft | 507 kts | 294° |
| 2026-05-08 11:46 | 11.22212 | 84.12127 | 37777 ft | 507 kts | 294° |
| 2026-05-08 11:46 | 11.25162 | 84.05597 | 37772 ft | 506 kts | 294° |
| 2026-05-08 11:47 | 11.28104 | 83.99082 | 37779 ft | 506 kts | 294° |
| 2026-05-08 11:47 | 11.31043 | 83.92568 | 37777 ft | 505 kts | 294° |
| 2026-05-08 11:48 | 11.33973 | 83.86073 | 37777 ft | 504 kts | 294° |
| 2026-05-08 11:48 | 11.36895 | 83.79588 | 37773 ft | 503 kts | 294° |
| 2026-05-08 11:49 | 11.39792 | 83.73154 | 37769 ft | 502 kts | 294° |
| 2026-05-08 11:49 | 11.42708 | 83.66674 | 37766 ft | 502 kts | 294° |
| 2026-05-08 11:50 | 11.45617 | 83.60205 | 37765 ft | 502 kts | 293° |
| 2026-05-08 11:50 | 11.48525 | 83.53732 | 37759 ft | 502 kts | 293° |
| 2026-05-08 11:51 | 11.51426 | 83.47272 | 37755 ft | 502 kts | 293° |
| 2026-05-08 11:51 | 11.54337 | 83.40785 | 37758 ft | 502 kts | 293° |
| 2026-05-08 11:52 | 11.57244 | 83.34303 | 37760 ft | 503 kts | 293° |
| 2026-05-08 11:52 | 11.60156 | 83.27807 | 37766 ft | 504 kts | 293° |
| 2026-05-08 11:53 | 11.63088 | 83.21294 | 37768 ft | 505 kts | 294° |
| 2026-05-08 11:53 | 11.66008 | 83.14823 | 37776 ft | 505 kts | 294° |
| 2026-05-08 11:54 | 11.68946 | 83.08311 | 37781 ft | 506 kts | 294° |
| 2026-05-08 11:54 | 11.71885 | 83.01792 | 37783 ft | 505 kts | 294° |
| 2026-05-08 11:55 | 11.74820 | 82.95274 | 37779 ft | 505 kts | 294° |
| 2026-05-08 11:55 | 11.77747 | 82.88769 | 37774 ft | 504 kts | 294° |
| 2026-05-08 11:56 | 11.80673 | 82.82263 | 37767 ft | 504 kts | 294° |
| 2026-05-08 11:56 | 11.83596 | 82.75758 | 37767 ft | 503 kts | 293° |
| 2026-05-08 11:57 | 11.86512 | 82.69264 | 37765 ft | 503 kts | 293° |
| 2026-05-08 11:57 | 11.89432 | 82.62755 | 37763 ft | 503 kts | 293° |
| 2026-05-08 11:58 | 11.92342 | 82.56266 | 37761 ft | 503 kts | 293° |
| 2026-05-08 11:58 | 11.95252 | 82.49771 | 37763 ft | 503 kts | 293° |
| 2026-05-08 11:59 | 11.99600 | 82.40059 | 37759 ft | 503 kts | 293° |
| 2026-05-08 11:59 | 12.02510 | 82.33550 | 37763 ft | 503 kts | 293° |
| 2026-05-08 12:00 | 12.05420 | 82.27040 | 37770 ft | 504 kts | 293° |
| 2026-05-08 12:00 | 12.08328 | 82.20527 | 37768 ft | 504 kts | 293° |
| 2026-05-08 12:01 | 12.11238 | 82.14007 | 37773 ft | 504 kts | 293° |
| 2026-05-08 12:01 | 12.14143 | 82.07493 | 37776 ft | 504 kts | 293° |
| 2026-05-08 12:02 | 12.17049 | 82.00971 | 37776 ft | 503 kts | 293° |
| 2026-05-08 12:02 | 12.19927 | 81.94507 | 37772 ft | 503 kts | 293° |
| 2026-05-08 12:03 | 12.22817 | 81.88011 | 37771 ft | 502 kts | 293° |
| 2026-05-08 12:03 | 12.25714 | 81.81496 | 37770 ft | 502 kts | 293° |
| 2026-05-08 12:04 | 12.28599 | 81.75002 | 37769 ft | 501 kts | 293° |
| 2026-05-08 12:04 | 12.31481 | 81.68509 | 37773 ft | 501 kts | 293° |
| 2026-05-08 12:05 | 12.34357 | 81.62026 | 37771 ft | 500 kts | 293° |
| 2026-05-08 12:05 | 12.37232 | 81.55539 | 37772 ft | 500 kts | 293° |
| 2026-05-08 12:06 | 12.40100 | 81.49065 | 37772 ft | 500 kts | 293° |
| 2026-05-08 12:06 | 12.42968 | 81.42583 | 37771 ft | 500 kts | 293° |
| 2026-05-08 12:07 | 12.45834 | 81.36103 | 37766 ft | 500 kts | 293° |
| 2026-05-08 12:07 | 12.48680 | 81.29663 | 37770 ft | 500 kts | 293° |
| 2026-05-08 12:08 | 12.51547 | 81.23172 | 37771 ft | 500 kts | 293° |
| 2026-05-08 12:08 | 12.54412 | 81.16678 | 37774 ft | 500 kts | 293° |
| 2026-05-08 12:09 | 12.57275 | 81.10185 | 37776 ft | 501 kts | 293° |
| 2026-05-08 12:09 | 12.60142 | 81.03678 | 37773 ft | 501 kts | 293° |
| 2026-05-08 12:10 | 12.63008 | 80.97168 | 37770 ft | 501 kts | 293° |
| 2026-05-08 12:10 | 12.65857 | 80.90691 | 37773 ft | 502 kts | 293° |
| 2026-05-08 12:11 | 12.68743 | 80.84126 | 37777 ft | 503 kts | 293° |
| 2026-05-08 12:11 | 12.71598 | 80.77624 | 37780 ft | 503 kts | 293° |
| 2026-05-08 12:12 | 12.74469 | 80.71084 | 37779 ft | 504 kts | 293° |
| 2026-05-08 12:12 | 12.77342 | 80.64531 | 37782 ft | 504 kts | 293° |
| 2026-05-08 12:13 | 12.80213 | 80.57980 | 37789 ft | 505 kts | 293° |
| 2026-05-08 12:13 | 12.83091 | 80.51406 | 37794 ft | 505 kts | 293° |
| 2026-05-08 12:14 | 12.85965 | 80.44837 | 37797 ft | 505 kts | 293° |
| 2026-05-08 12:14 | 12.88837 | 80.38266 | 37798 ft | 505 kts | 293° |
| 2026-05-08 12:15 | 12.91710 | 80.31689 | 37801 ft | 505 kts | 293° |
| 2026-05-08 12:15 | 12.94558 | 80.25163 | 37803 ft | 505 kts | 292° |
| 2026-05-08 12:16 | 12.97430 | 80.18578 | 37799 ft | 505 kts | 292° |
| 2026-05-08 12:16 | 12.99716 | 80.11793 | 37798 ft | 503 kts | 282° |
| 2026-05-08 12:17 | 13.01132 | 80.06004 | 37796 ft | 503 kts | 283° |
| 2026-05-08 12:17 | 13.02879 | 79.99048 | 37797 ft | 504 kts | 283° |
| 2026-05-08 12:18 | 13.04626 | 79.92075 | 37793 ft | 505 kts | 282° |
| 2026-05-08 12:18 | 13.06366 | 79.85103 | 37803 ft | 505 kts | 282° |
| 2026-05-08 12:19 | 13.08106 | 79.78116 | 37812 ft | 505 kts | 282° |
| 2026-05-08 12:19 | 13.09843 | 79.71138 | 37814 ft | 505 kts | 282° |
| 2026-05-08 12:20 | 13.11575 | 79.64167 | 37812 ft | 504 kts | 282° |
| 2026-05-08 12:20 | 13.13306 | 79.57195 | 37811 ft | 504 kts | 282° |
| 2026-05-08 12:21 | 13.15031 | 79.50235 | 37805 ft | 503 kts | 282° |
| 2026-05-08 12:21 | 13.16751 | 79.43286 | 37800 ft | 502 kts | 282° |
| 2026-05-08 12:22 | 13.18466 | 79.36350 | 37795 ft | 502 kts | 282° |
| 2026-05-08 12:22 | 13.20180 | 79.29414 | 37797 ft | 501 kts | 282° |
| 2026-05-08 12:23 | 13.21893 | 79.22471 | 37802 ft | 501 kts | 282° |
| 2026-05-08 12:23 | 13.23601 | 79.15537 | 37807 ft | 501 kts | 282° |
| 2026-05-08 12:24 | 13.25307 | 79.08605 | 37818 ft | 501 kts | 282° |
| 2026-05-08 12:24 | 13.27016 | 79.01654 | 37829 ft | 502 kts | 282° |
| 2026-05-08 12:25 | 13.28559 | 78.94676 | 37846 ft | 501 kts | 277° |
| 2026-05-08 12:25 | 13.29074 | 78.87557 | 37855 ft | 499 kts | 267° |
| 2026-05-08 12:26 | 13.28659 | 78.80487 | 37870 ft | 499 kts | 264° |
| 2026-05-08 12:26 | 13.28183 | 78.73369 | 37876 ft | 500 kts | 264° |
| 2026-05-08 12:27 | 13.27704 | 78.66250 | 37887 ft | 500 kts | 264° |
| 2026-05-08 12:27 | 13.27218 | 78.59131 | 37894 ft | 500 kts | 264° |
| 2026-05-08 12:28 | 13.26729 | 78.52000 | 37903 ft | 501 kts | 264° |
| 2026-05-08 12:28 | 13.26237 | 78.44869 | 37909 ft | 501 kts | 264° |
| 2026-05-08 12:29 | 13.25742 | 78.37728 | 37913 ft | 502 kts | 264° |
| 2026-05-08 12:29 | 13.25241 | 78.30529 | 37921 ft | 502 kts | 264° |
| 2026-05-08 12:30 | 13.24742 | 78.23372 | 37925 ft | 502 kts | 264° |
| 2026-05-08 12:30 | 13.24244 | 78.16274 | 37922 ft | 502 kts | 264° |
| 2026-05-08 12:31 | 13.23741 | 78.09123 | 37927 ft | 502 kts | 264° |
| 2026-05-08 12:31 | 13.23237 | 78.01983 | 37923 ft | 502 kts | 264° |
| 2026-05-08 12:32 | 13.22729 | 77.94836 | 37920 ft | 502 kts | 264° |
| 2026-05-08 12:32 | 13.22221 | 77.87694 | 37913 ft | 501 kts | 264° |
| 2026-05-08 12:33 | 13.21729 | 77.80810 | 37910 ft | 501 kts | 264° |
| 2026-05-08 12:33 | 13.21384 | 77.73654 | 37908 ft | 503 kts | 270° |
| 2026-05-08 12:34 | 13.22420 | 77.66602 | 37906 ft | 506 kts | 284° |
| 2026-05-08 12:34 | 13.24918 | 77.59845 | 37907 ft | 507 kts | 292° |
| 2026-05-08 12:35 | 13.27691 | 77.53180 | 37909 ft | 507 kts | 291° |
| 2026-05-08 12:35 | 13.30445 | 77.46515 | 37902 ft | 507 kts | 291° |
| 2026-05-08 12:36 | 13.33204 | 77.39845 | 37897 ft | 507 kts | 291° |
| 2026-05-08 12:36 | 13.35960 | 77.33183 | 37888 ft | 507 kts | 291° |
| 2026-05-08 12:37 | 13.38714 | 77.26523 | 37885 ft | 506 kts | 291° |
| 2026-05-08 12:37 | 13.41462 | 77.19868 | 37875 ft | 506 kts | 291° |
| 2026-05-08 12:38 | 13.44198 | 77.13238 | 37872 ft | 506 kts | 291° |
| 2026-05-08 12:38 | 13.46941 | 77.06585 | 37865 ft | 506 kts | 291° |
| 2026-05-08 12:39 | 13.49680 | 76.99935 | 37864 ft | 505 kts | 291° |
| 2026-05-08 12:39 | 13.52423 | 76.93271 | 37857 ft | 505 kts | 291° |
| 2026-05-08 12:40 | 13.55159 | 76.86618 | 37851 ft | 505 kts | 291° |
| 2026-05-08 12:40 | 13.57877 | 76.80004 | 37857 ft | 505 kts | 291° |
| 2026-05-08 12:41 | 13.60600 | 76.73360 | 37849 ft | 504 kts | 291° |
| 2026-05-08 12:41 | 13.63285 | 76.66695 | 37846 ft | 504 kts | 291° |
| 2026-05-08 12:42 | 13.65963 | 76.60037 | 37845 ft | 504 kts | 291° |
| 2026-05-08 12:42 | 13.68649 | 76.53368 | 37847 ft | 504 kts | 291° |
| 2026-05-08 12:43 | 13.71327 | 76.46714 | 37839 ft | 504 kts | 291° |
| 2026-05-08 12:43 | 13.74007 | 76.40050 | 37844 ft | 503 kts | 291° |
| 2026-05-08 12:44 | 13.76680 | 76.33398 | 37842 ft | 503 kts | 291° |
| 2026-05-08 12:44 | 13.79350 | 76.26747 | 37839 ft | 503 kts | 291° |
| 2026-05-08 12:45 | 13.82018 | 76.20094 | 37837 ft | 503 kts | 291° |
| 2026-05-08 12:45 | 13.84671 | 76.13472 | 37831 ft | 503 kts | 291° |
| 2026-05-08 12:46 | 13.87338 | 76.06811 | 37829 ft | 503 kts | 291° |
| 2026-05-08 12:46 | 13.90008 | 76.00137 | 37832 ft | 504 kts | 291° |
| 2026-05-08 12:47 | 13.92712 | 75.93371 | 37832 ft | 504 kts | 291° |
| 2026-05-08 12:47 | 13.95374 | 75.86703 | 37829 ft | 504 kts | 291° |
| 2026-05-08 12:48 | 13.98036 | 75.80028 | 37833 ft | 503 kts | 291° |
| 2026-05-08 12:48 | 14.00694 | 75.73359 | 37832 ft | 503 kts | 291° |
| 2026-05-08 12:49 | 14.03350 | 75.66691 | 37836 ft | 502 kts | 291° |
| 2026-05-08 12:49 | 14.05995 | 75.60040 | 37833 ft | 502 kts | 291° |
| 2026-05-08 12:50 | 14.08664 | 75.53456 | 37826 ft | 501 kts | 294° |
| 2026-05-08 12:50 | 14.11931 | 75.47118 | 37822 ft | 501 kts | 297° |
| 2026-05-08 12:51 | 14.16869 | 75.37624 | 37828 ft | 500 kts | 297° |
| 2026-05-08 12:52 | 14.20149 | 75.31309 | 37827 ft | 500 kts | 297° |
| 2026-05-08 12:52 | 14.25075 | 75.21821 | 37840 ft | 500 kts | 297° |
| 2026-05-08 12:53 | 14.28348 | 75.15509 | 37850 ft | 499 kts | 297° |
| 2026-05-08 12:53 | 14.31620 | 75.09195 | 37851 ft | 499 kts | 296° |
| 2026-05-08 12:54 | 14.34887 | 75.02886 | 37846 ft | 498 kts | 296° |
| 2026-05-08 12:54 | 14.38147 | 74.96584 | 37836 ft | 498 kts | 296° |
| 2026-05-08 12:55 | 14.41408 | 74.90276 | 37831 ft | 498 kts | 296° |
| 2026-05-08 12:55 | 14.44116 | 74.85035 | 37828 ft | 498 kts | 296° |
| 2026-05-08 12:56 | 14.47371 | 74.78730 | 37825 ft | 498 kts | 296° |
| 2026-05-08 12:56 | 14.50647 | 74.72438 | 37824 ft | 498 kts | 297° |
| 2026-05-08 12:57 | 14.53983 | 74.66168 | 37821 ft | 498 kts | 297° |
| 2026-05-08 12:57 | 14.57312 | 74.59891 | 37812 ft | 498 kts | 297° |
| 2026-05-08 12:58 | 14.60631 | 74.53613 | 37814 ft | 498 kts | 297° |
| 2026-05-08 12:58 | 14.63933 | 74.47361 | 37803 ft | 498 kts | 297° |
| 2026-05-08 12:59 | 14.67249 | 74.41076 | 37804 ft | 498 kts | 297° |
| 2026-05-08 12:59 | 14.70560 | 74.34796 | 37795 ft | 498 kts | 297° |
| 2026-05-08 13:00 | 14.73876 | 74.28503 | 37795 ft | 498 kts | 297° |
| 2026-05-08 13:00 | 14.77179 | 74.22226 | 37786 ft | 497 kts | 297° |
| 2026-05-08 13:01 | 14.80486 | 74.15938 | 37777 ft | 497 kts | 297° |
| 2026-05-08 13:01 | 14.83784 | 74.09661 | 37777 ft | 497 kts | 297° |
| 2026-05-08 13:02 | 14.87084 | 74.03378 | 37772 ft | 497 kts | 298° |
| 2026-05-08 13:02 | 14.90379 | 73.97097 | 37771 ft | 497 kts | 298° |
| 2026-05-08 13:03 | 14.93676 | 73.90812 | 37772 ft | 497 kts | 298° |
| 2026-05-08 13:03 | 14.96956 | 73.84558 | 37773 ft | 498 kts | 298° |
| 2026-05-08 13:04 | 15.00255 | 73.78265 | 37786 ft | 497 kts | 298° |
| 2026-05-08 13:04 | 15.03537 | 73.71981 | 37792 ft | 496 kts | 298° |
| 2026-05-08 13:05 | 15.06810 | 73.65707 | 37791 ft | 494 kts | 298° |
| 2026-05-08 13:05 | 15.10069 | 73.59458 | 37788 ft | 492 kts | 298° |
| 2026-05-08 13:06 | 15.13306 | 73.53245 | 37789 ft | 490 kts | 299° |
| 2026-05-08 13:06 | 15.16533 | 73.47047 | 37782 ft | 488 kts | 299° |
| 2026-05-08 13:07 | 15.19750 | 73.40862 | 37764 ft | 486 kts | 298° |
| 2026-05-08 13:07 | 15.22932 | 73.34740 | 37755 ft | 485 kts | 298° |
| 2026-05-08 13:08 | 15.26118 | 73.28602 | 37748 ft | 484 kts | 298° |
| 2026-05-08 13:08 | 15.29301 | 73.22469 | 37746 ft | 483 kts | 298° |
| 2026-05-08 13:09 | 15.32480 | 73.16337 | 37747 ft | 482 kts | 298° |
| 2026-05-08 13:09 | 15.35654 | 73.10208 | 37747 ft | 482 kts | 298° |
| 2026-05-08 13:10 | 15.38827 | 73.04078 | 37755 ft | 483 kts | 298° |
| 2026-05-08 13:10 | 15.42001 | 72.97939 | 37762 ft | 483 kts | 298° |
| 2026-05-08 13:11 | 15.45178 | 72.91792 | 37775 ft | 484 kts | 298° |
| 2026-05-08 13:11 | 15.48361 | 72.85625 | 37775 ft | 485 kts | 298° |
| 2026-05-08 13:12 | 15.51520 | 72.79501 | 37776 ft | 485 kts | 298° |
| 2026-05-08 13:12 | 15.54699 | 72.73334 | 37788 ft | 485 kts | 298° |
| 2026-05-08 13:13 | 15.57881 | 72.67154 | 37788 ft | 485 kts | 298° |
| 2026-05-08 13:13 | 15.61057 | 72.60982 | 37789 ft | 485 kts | 298° |
| 2026-05-08 13:14 | 15.64223 | 72.54822 | 37791 ft | 484 kts | 298° |
| 2026-05-08 13:14 | 15.67392 | 72.48652 | 37786 ft | 483 kts | 298° |
| 2026-05-08 13:15 | 15.70530 | 72.42538 | 37785 ft | 483 kts | 298° |
| 2026-05-08 13:15 | 15.73701 | 72.36352 | 37783 ft | 482 kts | 298° |
| 2026-05-08 13:16 | 15.76826 | 72.30254 | 37776 ft | 482 kts | 298° |
| 2026-05-08 13:16 | 15.79971 | 72.24109 | 37777 ft | 481 kts | 298° |
| 2026-05-08 13:17 | 15.83114 | 72.17964 | 37777 ft | 481 kts | 298° |
| 2026-05-08 13:17 | 15.86251 | 72.11824 | 37780 ft | 482 kts | 298° |
| 2026-05-08 13:18 | 15.89397 | 72.05663 | 37788 ft | 482 kts | 298° |
| 2026-05-08 13:18 | 15.92538 | 71.99505 | 37789 ft | 482 kts | 298° |
| 2026-05-08 13:19 | 15.95679 | 71.93343 | 37794 ft | 483 kts | 298° |
| 2026-05-08 13:19 | 15.98825 | 71.87164 | 37790 ft | 483 kts | 297° |
| 2026-05-08 13:20 | 16.01966 | 71.80991 | 37795 ft | 483 kts | 297° |
| 2026-05-08 13:20 | 16.05106 | 71.74815 | 37799 ft | 483 kts | 297° |
| 2026-05-08 13:21 | 16.08247 | 71.68631 | 37799 ft | 483 kts | 297° |
| 2026-05-08 13:21 | 16.11392 | 71.62460 | 37798 ft | 483 kts | 298° |
| 2026-05-08 13:22 | 16.14588 | 71.56370 | 37797 ft | 483 kts | 298° |
| 2026-05-08 13:22 | 16.17813 | 71.50228 | 37797 ft | 483 kts | 298° |
| 2026-05-08 13:23 | 16.21024 | 71.44086 | 37797 ft | 483 kts | 298° |
| 2026-05-08 13:23 | 16.24228 | 71.37945 | 37798 ft | 483 kts | 298° |
| 2026-05-08 13:24 | 16.27434 | 71.31796 | 37802 ft | 483 kts | 298° |
| 2026-05-08 13:24 | 16.30635 | 71.25652 | 37804 ft | 483 kts | 298° |
| 2026-05-08 13:25 | 16.33840 | 71.19493 | 37804 ft | 484 kts | 298° |
| 2026-05-08 13:25 | 16.37050 | 71.13321 | 37806 ft | 484 kts | 298° |
| 2026-05-08 13:26 | 16.40229 | 71.07202 | 37811 ft | 484 kts | 298° |
| 2026-05-08 13:26 | 16.43428 | 71.01039 | 37810 ft | 484 kts | 298° |
| 2026-05-08 13:27 | 16.46635 | 70.94856 | 37805 ft | 484 kts | 298° |
| 2026-05-08 13:27 | 16.49835 | 70.88679 | 37811 ft | 484 kts | 298° |
| 2026-05-08 13:28 | 16.53039 | 70.82491 | 37814 ft | 485 kts | 298° |
| 2026-05-08 13:28 | 16.56269 | 70.76319 | 37817 ft | 485 kts | 298° |
| 2026-05-08 13:29 | 16.59506 | 70.70153 | 37815 ft | 485 kts | 298° |
| 2026-05-08 13:29 | 16.62741 | 70.63972 | 37815 ft | 486 kts | 298° |
| 2026-05-08 13:30 | 16.65975 | 70.57786 | 37819 ft | 486 kts | 298° |
| 2026-05-08 13:30 | 16.69209 | 70.51592 | 37821 ft | 486 kts | 298° |
| 2026-05-08 13:31 | 16.72442 | 70.45397 | 37821 ft | 486 kts | 298° |
| 2026-05-08 13:31 | 16.75676 | 70.39192 | 37820 ft | 486 kts | 298° |
| 2026-05-08 13:32 | 16.78901 | 70.33001 | 37817 ft | 486 kts | 298° |
| 2026-05-08 13:32 | 16.82131 | 70.26792 | 37822 ft | 486 kts | 298° |
| 2026-05-08 13:33 | 16.85339 | 70.20622 | 37819 ft | 487 kts | 298° |
| 2026-05-08 13:33 | 16.88566 | 70.14408 | 37822 ft | 487 kts | 298° |
| 2026-05-08 13:34 | 16.91797 | 70.08181 | 37825 ft | 487 kts | 298° |
| 2026-05-08 13:34 | 16.95030 | 70.01944 | 37829 ft | 487 kts | 298° |
| 2026-05-08 13:35 | 16.98256 | 69.95715 | 37830 ft | 487 kts | 298° |
| 2026-05-08 13:35 | 17.01479 | 69.89487 | 37828 ft | 488 kts | 298° |
| 2026-05-08 13:36 | 17.04703 | 69.83251 | 37836 ft | 488 kts | 298° |
| 2026-05-08 13:36 | 17.07915 | 69.77032 | 37833 ft | 488 kts | 298° |
| 2026-05-08 13:37 | 17.11134 | 69.70792 | 37836 ft | 488 kts | 298° |
| 2026-05-08 13:37 | 17.14357 | 69.64542 | 37838 ft | 488 kts | 298° |
| 2026-05-08 13:38 | 17.17583 | 69.58277 | 37841 ft | 488 kts | 298° |
| 2026-05-08 13:38 | 17.20805 | 69.52026 | 37841 ft | 488 kts | 298° |
| 2026-05-08 13:39 | 17.24047 | 69.45778 | 37835 ft | 489 kts | 298° |
| 2026-05-08 13:39 | 17.27293 | 69.39520 | 37838 ft | 489 kts | 298° |
| 2026-05-08 13:40 | 17.30531 | 69.33266 | 37840 ft | 489 kts | 298° |
| 2026-05-08 13:40 | 17.33766 | 69.27009 | 37839 ft | 489 kts | 298° |
| 2026-05-08 13:41 | 17.36455 | 69.21803 | 37840 ft | 489 kts | 298° |
| 2026-05-08 13:41 | 17.40209 | 69.14529 | 37841 ft | 489 kts | 298° |
| 2026-05-08 13:42 | 17.43439 | 69.08263 | 37839 ft | 489 kts | 298° |
| 2026-05-08 13:42 | 17.46146 | 69.03009 | 37842 ft | 489 kts | 298° |
| 2026-05-08 13:43 | 17.49374 | 68.96736 | 37843 ft | 489 kts | 298° |
| 2026-05-08 13:43 | 17.52600 | 68.90462 | 37845 ft | 489 kts | 298° |
| 2026-05-08 13:44 | 17.55824 | 68.84186 | 37843 ft | 489 kts | 298° |
| 2026-05-08 13:44 | 17.59046 | 68.77906 | 37843 ft | 489 kts | 298° |
| 2026-05-08 13:45 | 17.62267 | 68.71623 | 37847 ft | 489 kts | 298° |
| 2026-05-08 13:45 | 17.65485 | 68.65339 | 37847 ft | 489 kts | 298° |
| 2026-05-08 13:46 | 17.68703 | 68.59050 | 37848 ft | 489 kts | 298° |
| 2026-05-08 13:46 | 17.71899 | 68.52799 | 37850 ft | 489 kts | 298° |
| 2026-05-08 13:47 | 17.75116 | 68.46499 | 37846 ft | 489 kts | 298° |
| 2026-05-08 13:47 | 17.78327 | 68.40204 | 37847 ft | 489 kts | 297° |
| 2026-05-08 13:48 | 17.81536 | 68.33907 | 37848 ft | 489 kts | 298° |
| 2026-05-08 13:48 | 17.84729 | 68.27637 | 37848 ft | 489 kts | 298° |
| 2026-05-08 13:49 | 17.87936 | 68.21332 | 37851 ft | 489 kts | 298° |
| 2026-05-08 13:49 | 17.91129 | 68.15048 | 37851 ft | 489 kts | 297° |
| 2026-05-08 13:50 | 17.94336 | 68.08731 | 37849 ft | 489 kts | 297° |
| 2026-05-08 13:50 | 17.97533 | 68.02427 | 37851 ft | 489 kts | 297° |
| 2026-05-08 13:51 | 18.00724 | 67.96128 | 37849 ft | 489 kts | 297° |
| 2026-05-08 13:51 | 18.03918 | 67.89816 | 37850 ft | 489 kts | 297° |
| 2026-05-08 13:52 | 18.07105 | 67.83514 | 37850 ft | 488 kts | 297° |
| 2026-05-08 13:52 | 18.10341 | 67.77241 | 37849 ft | 488 kts | 298° |
| 2026-05-08 13:53 | 18.13640 | 67.70995 | 37846 ft | 488 kts | 298° |
| 2026-05-08 13:53 | 18.16922 | 67.64752 | 37847 ft | 488 kts | 298° |
| 2026-05-08 13:54 | 18.20198 | 67.58498 | 37849 ft | 488 kts | 298° |
| 2026-05-08 13:54 | 18.23447 | 67.52284 | 37844 ft | 487 kts | 298° |
| 2026-05-08 13:55 | 18.26713 | 67.46033 | 37848 ft | 487 kts | 298° |
| 2026-05-08 13:56 | 18.31606 | 67.36653 | 37840 ft | 486 kts | 298° |
| 2026-05-08 13:56 | 18.34858 | 67.30412 | 37841 ft | 486 kts | 298° |
| 2026-05-08 13:57 | 18.38105 | 67.24175 | 37843 ft | 486 kts | 298° |
| 2026-05-08 13:57 | 18.41356 | 67.17924 | 37839 ft | 486 kts | 298° |
| 2026-05-08 13:58 | 18.44597 | 67.11683 | 37844 ft | 486 kts | 298° |
| 2026-05-08 13:58 | 18.47839 | 67.05438 | 37841 ft | 486 kts | 298° |
| 2026-05-08 13:59 | 18.51082 | 66.99182 | 37843 ft | 486 kts | 298° |
| 2026-05-08 13:59 | 18.54319 | 66.92933 | 37842 ft | 486 kts | 298° |
| 2026-05-08 14:00 | 18.57558 | 66.86673 | 37843 ft | 486 kts | 298° |
| 2026-05-08 14:00 | 18.60794 | 66.80412 | 37846 ft | 486 kts | 298° |
| 2026-05-08 14:01 | 18.64030 | 66.74146 | 37847 ft | 486 kts | 298° |
| 2026-05-08 14:01 | 18.67244 | 66.67915 | 37846 ft | 486 kts | 298° |
| 2026-05-08 14:02 | 18.70472 | 66.61651 | 37846 ft | 486 kts | 298° |
| 2026-05-08 14:02 | 18.73708 | 66.55365 | 37842 ft | 486 kts | 298° |
| 2026-05-08 14:03 | 18.76932 | 66.49094 | 37843 ft | 486 kts | 298° |
| 2026-05-08 14:03 | 18.80155 | 66.42821 | 37851 ft | 486 kts | 298° |
| 2026-05-08 14:04 | 18.83374 | 66.36549 | 37845 ft | 486 kts | 298° |
| 2026-05-08 14:04 | 18.86596 | 66.30263 | 37844 ft | 486 kts | 298° |
| 2026-05-08 14:05 | 18.89807 | 66.23993 | 37847 ft | 486 kts | 298° |
| 2026-05-08 14:05 | 18.93001 | 66.17750 | 37844 ft | 486 kts | 298° |
| 2026-05-08 14:06 | 18.96211 | 66.11469 | 37843 ft | 486 kts | 298° |
| 2026-05-08 14:06 | 18.99423 | 66.05176 | 37844 ft | 486 kts | 298° |
| 2026-05-08 14:07 | 19.02634 | 65.98881 | 37844 ft | 486 kts | 298° |
| 2026-05-08 14:07 | 19.05838 | 65.92591 | 37844 ft | 486 kts | 298° |
| 2026-05-08 14:08 | 19.09038 | 65.86304 | 37844 ft | 486 kts | 298° |
| 2026-05-08 14:08 | 19.12242 | 65.80001 | 37844 ft | 486 kts | 298° |
| 2026-05-08 14:09 | 19.15442 | 65.73700 | 37844 ft | 486 kts | 298° |
| 2026-05-08 14:09 | 19.18621 | 65.67433 | 37846 ft | 486 kts | 298° |
| 2026-05-08 14:10 | 19.21815 | 65.61130 | 37846 ft | 486 kts | 298° |
| 2026-05-08 14:10 | 19.25005 | 65.54829 | 37843 ft | 486 kts | 298° |
| 2026-05-08 14:11 | 19.28197 | 65.48518 | 37845 ft | 486 kts | 298° |
| 2026-05-08 14:11 | 19.31385 | 65.42205 | 37841 ft | 486 kts | 298° |
| 2026-05-08 14:12 | 19.34566 | 65.35901 | 37844 ft | 486 kts | 298° |
| 2026-05-08 14:12 | 19.37749 | 65.29588 | 37844 ft | 486 kts | 298° |
| 2026-05-08 14:13 | 19.40931 | 65.23268 | 37847 ft | 486 kts | 297° |
| 2026-05-08 14:13 | 19.44111 | 65.16946 | 37847 ft | 486 kts | 297° |
| 2026-05-08 14:14 | 19.47285 | 65.10628 | 37846 ft | 486 kts | 297° |
| 2026-05-08 14:14 | 19.50461 | 65.04304 | 37849 ft | 486 kts | 297° |
| 2026-05-08 14:15 | 19.53622 | 64.98017 | 37849 ft | 486 kts | 298° |
| 2026-05-08 14:15 | 19.56863 | 64.91727 | 37850 ft | 486 kts | 298° |
| 2026-05-08 14:16 | 19.60115 | 64.85438 | 37845 ft | 486 kts | 298° |
| 2026-05-08 14:16 | 19.63355 | 64.79148 | 37846 ft | 486 kts | 298° |
| 2026-05-08 14:17 | 19.66589 | 64.72855 | 37845 ft | 486 kts | 298° |
| 2026-05-08 14:17 | 19.69823 | 64.66554 | 37844 ft | 486 kts | 298° |
| 2026-05-08 14:18 | 19.73058 | 64.60242 | 37845 ft | 485 kts | 298° |
| 2026-05-08 14:18 | 19.76276 | 64.53957 | 37838 ft | 485 kts | 298° |
| 2026-05-08 14:19 | 19.79503 | 64.47648 | 37841 ft | 486 kts | 298° |
| 2026-05-08 14:19 | 19.82728 | 64.41336 | 37841 ft | 486 kts | 298° |
| 2026-05-08 14:20 | 19.85949 | 64.35026 | 37838 ft | 486 kts | 298° |
| 2026-05-08 14:20 | 19.89169 | 64.28711 | 37839 ft | 486 kts | 298° |
| 2026-05-08 14:21 | 19.92383 | 64.22400 | 37836 ft | 486 kts | 298° |
| 2026-05-08 14:21 | 19.95581 | 64.16113 | 37838 ft | 486 kts | 298° |
| 2026-05-08 14:22 | 19.98795 | 64.09788 | 37834 ft | 486 kts | 298° |
| 2026-05-08 14:22 | 20.02009 | 64.03457 | 37835 ft | 486 kts | 298° |
| 2026-05-08 14:23 | 20.05218 | 63.97128 | 37836 ft | 486 kts | 298° |
| 2026-05-08 14:23 | 20.08426 | 63.90793 | 37835 ft | 486 kts | 298° |
| 2026-05-08 14:24 | 20.11629 | 63.84462 | 37831 ft | 486 kts | 298° |
| 2026-05-08 14:24 | 20.14828 | 63.78131 | 37827 ft | 486 kts | 298° |
| 2026-05-08 14:25 | 20.18027 | 63.71794 | 37828 ft | 486 kts | 298° |
| 2026-05-08 14:25 | 20.20689 | 63.66516 | 37829 ft | 486 kts | 297° |
| 2026-05-08 14:26 | 20.23886 | 63.60168 | 37835 ft | 486 kts | 297° |
| 2026-05-08 14:26 | 20.27083 | 63.53815 | 37831 ft | 487 kts | 297° |
| 2026-05-08 14:27 | 20.30280 | 63.47454 | 37828 ft | 487 kts | 297° |
| 2026-05-08 14:27 | 20.33473 | 63.41094 | 37825 ft | 487 kts | 297° |
| 2026-05-08 14:28 | 20.36666 | 63.34727 | 37824 ft | 487 kts | 297° |
| 2026-05-08 14:28 | 20.39836 | 63.28399 | 37831 ft | 487 kts | 297° |
| 2026-05-08 14:29 | 20.43023 | 63.22028 | 37823 ft | 487 kts | 297° |
| 2026-05-08 14:29 | 20.46232 | 63.15607 | 37819 ft | 487 kts | 297° |
| 2026-05-08 14:30 | 20.49400 | 63.09262 | 37822 ft | 487 kts | 297° |
| 2026-05-08 14:30 | 20.52581 | 63.02882 | 37825 ft | 487 kts | 297° |
| 2026-05-08 14:31 | 20.55764 | 62.96490 | 37820 ft | 487 kts | 297° |
| 2026-05-08 14:31 | 20.58946 | 62.90095 | 37822 ft | 487 kts | 297° |
| 2026-05-08 14:32 | 20.63706 | 62.80512 | 37816 ft | 487 kts | 297° |
| 2026-05-08 14:32 | 20.66875 | 62.74123 | 37813 ft | 487 kts | 297° |
| 2026-05-08 14:33 | 20.70045 | 62.67726 | 37815 ft | 487 kts | 297° |
| 2026-05-08 14:33 | 20.73211 | 62.61329 | 37809 ft | 487 kts | 297° |
| 2026-05-08 14:34 | 20.76370 | 62.54937 | 37813 ft | 487 kts | 297° |
| 2026-05-08 14:34 | 20.79512 | 62.48572 | 37811 ft | 487 kts | 297° |
| 2026-05-08 14:35 | 20.82690 | 62.42130 | 37807 ft | 487 kts | 297° |
| 2026-05-08 14:35 | 20.85827 | 62.35762 | 37804 ft | 487 kts | 297° |
| 2026-05-08 14:36 | 20.88980 | 62.29352 | 37809 ft | 487 kts | 296° |
| 2026-05-08 14:36 | 20.92128 | 62.22946 | 37805 ft | 487 kts | 296° |
| 2026-05-08 14:37 | 20.95275 | 62.16535 | 37803 ft | 487 kts | 296° |
| 2026-05-08 14:37 | 20.98421 | 62.10117 | 37807 ft | 487 kts | 296° |
| 2026-05-08 14:38 | 21.01560 | 62.03706 | 37800 ft | 487 kts | 296° |
| 2026-05-08 14:38 | 21.04702 | 61.97282 | 37806 ft | 487 kts | 296° |
| 2026-05-08 14:39 | 21.07824 | 61.90892 | 37798 ft | 487 kts | 296° |
| 2026-05-08 14:39 | 21.10959 | 61.84465 | 37801 ft | 487 kts | 296° |
| 2026-05-08 14:40 | 21.14096 | 61.78030 | 37796 ft | 487 kts | 296° |
| 2026-05-08 14:40 | 21.17225 | 61.71604 | 37795 ft | 487 kts | 296° |
| 2026-05-08 14:41 | 21.19774 | 61.64918 | 37788 ft | 484 kts | 284° |
| 2026-05-08 14:41 | 21.20978 | 61.57880 | 37793 ft | 483 kts | 273° |
| 2026-05-08 14:42 | 21.21192 | 61.50695 | 37789 ft | 482 kts | 271° |
| 2026-05-08 14:42 | 21.21404 | 61.43513 | 37791 ft | 483 kts | 271° |
| 2026-05-08 14:43 | 21.21607 | 61.36317 | 37793 ft | 483 kts | 271° |
| 2026-05-08 14:43 | 21.21800 | 61.29121 | 37799 ft | 483 kts | 271° |
| 2026-05-08 14:44 | 21.21989 | 61.21921 | 37795 ft | 483 kts | 271° |
| 2026-05-08 14:44 | 21.22175 | 61.14725 | 37794 ft | 483 kts | 271° |
| 2026-05-08 14:45 | 21.22358 | 61.07518 | 37791 ft | 483 kts | 270° |
| 2026-05-08 14:45 | 21.22538 | 61.00316 | 37788 ft | 483 kts | 270° |
| 2026-05-08 14:46 | 21.22715 | 60.93122 | 37793 ft | 483 kts | 270° |
| 2026-05-08 14:46 | 21.22889 | 60.85917 | 37791 ft | 483 kts | 270° |
| 2026-05-08 14:47 | 21.23059 | 60.78766 | 37790 ft | 483 kts | 270° |
| 2026-05-08 14:47 | 21.23226 | 60.71566 | 37792 ft | 483 kts | 270° |
| 2026-05-08 14:48 | 21.23392 | 60.64369 | 37786 ft | 483 kts | 270° |
| 2026-05-08 14:48 | 21.23554 | 60.57159 | 37785 ft | 483 kts | 270° |
| 2026-05-08 14:49 | 21.23712 | 60.50009 | 37790 ft | 483 kts | 270° |
| 2026-05-08 14:49 | 21.23867 | 60.42811 | 37781 ft | 483 kts | 270° |
| 2026-05-08 14:50 | 21.24019 | 60.35594 | 37786 ft | 483 kts | 270° |
| 2026-05-08 14:50 | 21.24169 | 60.28395 | 37795 ft | 483 kts | 270° |
| 2026-05-08 14:51 | 21.24316 | 60.21196 | 37788 ft | 483 kts | 270° |
| 2026-05-08 14:51 | 21.24460 | 60.14007 | 37793 ft | 482 kts | 270° |
| 2026-05-08 14:52 | 21.24664 | 60.03228 | 37786 ft | 482 kts | 270° |
| 2026-05-08 14:53 | 21.24797 | 59.96047 | 37783 ft | 482 kts | 270° |
| 2026-05-08 14:53 | 21.24925 | 59.88909 | 37781 ft | 482 kts | 270° |
| 2026-05-08 14:54 | 21.25051 | 59.81729 | 37780 ft | 482 kts | 270° |
| 2026-05-08 14:54 | 21.25176 | 59.74550 | 37786 ft | 481 kts | 270° |
| 2026-05-08 14:55 | 21.25295 | 59.67379 | 37778 ft | 481 kts | 270° |
| 2026-05-08 14:55 | 21.25414 | 59.60203 | 37777 ft | 481 kts | 270° |
| 2026-05-08 14:56 | 21.25529 | 59.53027 | 37778 ft | 482 kts | 270° |
| 2026-05-08 14:56 | 21.25640 | 59.45846 | 37774 ft | 482 kts | 270° |
| 2026-05-08 14:57 | 21.25749 | 59.38660 | 37777 ft | 482 kts | 270° |
| 2026-05-08 14:57 | 21.25854 | 59.31468 | 37771 ft | 482 kts | 270° |
| 2026-05-08 14:58 | 21.25957 | 59.24285 | 37776 ft | 482 kts | 270° |
| 2026-05-08 14:58 | 21.26056 | 59.17140 | 37775 ft | 482 kts | 270° |
| 2026-05-08 14:59 | 21.26153 | 59.09949 | 37771 ft | 482 kts | 270° |
| 2026-05-08 14:59 | 21.26292 | 58.99149 | 37777 ft | 483 kts | 270° |
| 2026-05-08 15:00 | 21.26381 | 58.91936 | 37783 ft | 483 kts | 270° |
| 2026-05-08 15:00 | 21.26473 | 58.84771 | 37781 ft | 483 kts | 271° |
| 2026-05-08 15:01 | 21.27255 | 58.77574 | 37785 ft | 485 kts | 280° |
| 2026-05-08 15:01 | 21.29066 | 58.70586 | 37786 ft | 486 kts | 286° |
| 2026-05-08 15:02 | 21.31050 | 58.63690 | 37792 ft | 486 kts | 285° |
| 2026-05-08 15:02 | 21.33029 | 58.56760 | 37795 ft | 486 kts | 285° |
| 2026-05-08 15:03 | 21.35010 | 58.49828 | 37794 ft | 486 kts | 285° |
| 2026-05-08 15:03 | 21.36991 | 58.42891 | 37789 ft | 486 kts | 285° |
| 2026-05-08 15:04 | 21.38967 | 58.35956 | 37790 ft | 486 kts | 285° |
| 2026-05-08 15:04 | 21.40941 | 58.29019 | 37792 ft | 486 kts | 285° |
| 2026-05-08 15:05 | 21.42912 | 58.22080 | 37790 ft | 486 kts | 285° |
| 2026-05-08 15:05 | 21.44882 | 58.15134 | 37790 ft | 485 kts | 285° |
| 2026-05-08 15:06 | 21.46844 | 58.08200 | 37793 ft | 485 kts | 285° |
| 2026-05-08 15:06 | 21.48803 | 58.01269 | 37793 ft | 485 kts | 285° |
| 2026-05-08 15:07 | 21.50757 | 57.94341 | 37788 ft | 485 kts | 285° |
| 2026-05-08 15:07 | 21.52707 | 57.87417 | 37791 ft | 484 kts | 285° |
| 2026-05-08 15:08 | 21.54330 | 57.81647 | 37795 ft | 484 kts | 285° |
| 2026-05-08 15:08 | 21.56587 | 57.73605 | 37797 ft | 484 kts | 285° |
| 2026-05-08 15:09 | 21.58526 | 57.66684 | 37793 ft | 483 kts | 285° |
| 2026-05-08 15:09 | 21.60459 | 57.59760 | 37799 ft | 483 kts | 285° |
| 2026-05-08 15:10 | 21.62060 | 57.54013 | 37799 ft | 483 kts | 285° |
| 2026-05-08 15:10 | 21.64312 | 57.45920 | 37804 ft | 483 kts | 285° |
| 2026-05-08 15:11 | 21.66234 | 57.38996 | 37800 ft | 483 kts | 285° |
| 2026-05-08 15:11 | 21.67829 | 57.33244 | 37803 ft | 483 kts | 285° |
| 2026-05-08 15:12 | 21.69749 | 57.26308 | 37806 ft | 483 kts | 285° |
| 2026-05-08 15:12 | 21.71665 | 57.19376 | 37804 ft | 483 kts | 285° |
| 2026-05-08 15:13 | 21.73563 | 57.12493 | 37812 ft | 483 kts | 285° |
| 2026-05-08 15:13 | 21.75481 | 57.05514 | 37815 ft | 483 kts | 285° |
| 2026-05-08 15:14 | 21.77370 | 56.98633 | 37809 ft | 483 kts | 285° |
| 2026-05-08 15:14 | 21.79270 | 56.91697 | 37809 ft | 483 kts | 285° |
| 2026-05-08 15:15 | 21.81170 | 56.84751 | 37791 ft | 483 kts | 285° |
| 2026-05-08 15:15 | 21.83064 | 56.77813 | 37788 ft | 483 kts | 285° |
| 2026-05-08 15:16 | 21.84955 | 56.70875 | 37789 ft | 483 kts | 285° |
| 2026-05-08 15:16 | 21.86842 | 56.63943 | 37794 ft | 483 kts | 284° |
| 2026-05-08 15:17 | 21.88726 | 56.57006 | 37796 ft | 483 kts | 284° |
| 2026-05-08 15:17 | 21.90609 | 56.50065 | 37807 ft | 482 kts | 284° |
| 2026-05-08 15:18 | 21.92475 | 56.43170 | 37798 ft | 482 kts | 284° |
| 2026-05-08 15:18 | 21.94352 | 56.36224 | 37802 ft | 482 kts | 284° |
| 2026-05-08 15:19 | 21.96221 | 56.29290 | 37796 ft | 482 kts | 284° |
| 2026-05-08 15:19 | 21.98097 | 56.22300 | 37798 ft | 482 kts | 284° |
| 2026-05-08 15:20 | 21.99946 | 56.15405 | 37791 ft | 482 kts | 284° |
| 2026-05-08 15:20 | 22.01805 | 56.08459 | 37787 ft | 482 kts | 284° |
| 2026-05-08 15:21 | 22.03663 | 56.01522 | 37786 ft | 482 kts | 284° |
| 2026-05-08 15:21 | 22.05525 | 55.94577 | 37789 ft | 481 kts | 284° |
| 2026-05-08 15:22 | 22.07379 | 55.87651 | 37785 ft | 481 kts | 284° |
| 2026-05-08 15:22 | 22.09232 | 55.80711 | 37782 ft | 481 kts | 284° |
| 2026-05-08 15:23 | 22.11082 | 55.73770 | 37786 ft | 481 kts | 284° |
| 2026-05-08 15:23 | 22.12924 | 55.66844 | 37781 ft | 481 kts | 284° |
| 2026-05-08 15:24 | 22.14776 | 55.59865 | 37780 ft | 490 kts | 284° |
| 2026-05-08 15:24 | 22.16086 | 55.52579 | 37781 ft | 506 kts | 274° |
| 2026-05-08 15:25 | 22.16782 | 55.45113 | 37781 ft | 500 kts | 274° |
| 2026-05-08 15:25 | 22.17513 | 55.37637 | 37784 ft | 501 kts | 274° |
| 2026-05-08 15:26 | 22.18244 | 55.30161 | 37778 ft | 500 kts | 274° |
| 2026-05-08 15:26 | 22.18968 | 55.22696 | 37779 ft | 500 kts | 274° |
| 2026-05-08 15:27 | 22.19690 | 55.15220 | 37780 ft | 500 kts | 274° |
| 2026-05-08 15:27 | 22.20407 | 55.07743 | 37782 ft | 501 kts | 274° |
| 2026-05-08 15:28 | 22.21118 | 55.00276 | 37778 ft | 500 kts | 274° |
| 2026-05-08 15:28 | 22.21825 | 54.92801 | 37778 ft | 500 kts | 274° |
| 2026-05-08 15:29 | 22.22529 | 54.85328 | 37780 ft | 500 kts | 274° |
| 2026-05-08 15:29 | 22.23228 | 54.77861 | 37781 ft | 500 kts | 274° |
| 2026-05-08 15:30 | 22.23919 | 54.70447 | 37782 ft | 500 kts | 274° |
| 2026-05-08 15:30 | 22.24617 | 54.62925 | 37785 ft | 500 kts | 274° |
| 2026-05-08 15:31 | 22.25301 | 54.55509 | 37783 ft | 500 kts | 274° |
| 2026-05-08 15:31 | 22.25988 | 54.48033 | 37787 ft | 500 kts | 274° |
| 2026-05-08 15:32 | 22.26670 | 54.40567 | 37787 ft | 500 kts | 274° |
| 2026-05-08 15:32 | 22.27349 | 54.33095 | 37790 ft | 499 kts | 274° |
| 2026-05-08 15:33 | 22.28024 | 54.25634 | 37788 ft | 499 kts | 274° |
| 2026-05-08 15:33 | 22.28691 | 54.18216 | 37786 ft | 499 kts | 273° |
| 2026-05-08 15:34 | 22.29363 | 54.10716 | 37787 ft | 499 kts | 273° |
| 2026-05-08 15:34 | 22.30028 | 54.03249 | 37789 ft | 499 kts | 273° |
| 2026-05-08 15:35 | 22.30682 | 53.95857 | 37792 ft | 499 kts | 273° |
| 2026-05-08 15:35 | 22.31339 | 53.88398 | 37794 ft | 499 kts | 273° |
| 2026-05-08 15:36 | 22.31883 | 53.82195 | 37792 ft | 499 kts | 273° |
| 2026-05-08 15:36 | 22.32644 | 53.73470 | 37790 ft | 499 kts | 273° |
| 2026-05-08 15:37 | 22.33291 | 53.66015 | 37791 ft | 498 kts | 273° |
| 2026-05-08 15:37 | 22.33933 | 53.58564 | 37793 ft | 498 kts | 273° |
| 2026-05-08 15:38 | 22.34572 | 53.51116 | 37795 ft | 498 kts | 273° |
| 2026-05-08 15:38 | 22.35208 | 53.43663 | 37796 ft | 498 kts | 273° |
| 2026-05-08 15:39 | 22.35836 | 53.36254 | 37802 ft | 498 kts | 272° |
| 2026-05-08 15:39 | 22.36465 | 53.28800 | 37792 ft | 498 kts | 272° |
| 2026-05-08 15:40 | 22.37091 | 53.21341 | 37803 ft | 498 kts | 272° |
| 2026-05-08 15:40 | 22.37714 | 53.13877 | 37801 ft | 498 kts | 272° |
| 2026-05-08 15:41 | 22.38332 | 53.06432 | 37804 ft | 498 kts | 272° |
| 2026-05-08 15:41 | 22.38948 | 52.98967 | 37797 ft | 498 kts | 272° |
| 2026-05-08 15:42 | 22.39560 | 52.91511 | 37805 ft | 498 kts | 272° |
| 2026-05-08 15:42 | 22.40168 | 52.84052 | 37806 ft | 498 kts | 272° |
| 2026-05-08 15:43 | 22.40773 | 52.76600 | 37810 ft | 497 kts | 272° |
| 2026-05-08 15:43 | 22.41374 | 52.69153 | 37811 ft | 497 kts | 272° |
| 2026-05-08 15:44 | 22.41967 | 52.61757 | 37808 ft | 497 kts | 272° |
| 2026-05-08 15:44 | 22.42561 | 52.54301 | 37813 ft | 497 kts | 272° |
| 2026-05-08 15:45 | 22.43152 | 52.46853 | 37818 ft | 497 kts | 272° |
| 2026-05-08 15:45 | 22.43739 | 52.39405 | 37820 ft | 497 kts | 272° |
| 2026-05-08 15:46 | 22.44322 | 52.31964 | 37813 ft | 496 kts | 272° |
| 2026-05-08 15:46 | 22.44897 | 52.24570 | 37827 ft | 496 kts | 272° |
| 2026-05-08 15:47 | 22.45472 | 52.17142 | 37823 ft | 496 kts | 272° |
| 2026-05-08 15:47 | 22.46045 | 52.09705 | 37821 ft | 496 kts | 272° |
| 2026-05-08 15:48 | 22.46896 | 51.98562 | 37817 ft | 496 kts | 272° |
| 2026-05-08 15:49 | 22.47459 | 51.91130 | 37812 ft | 495 kts | 272° |
| 2026-05-08 15:49 | 22.48018 | 51.83705 | 37828 ft | 496 kts | 272° |
| 2026-05-08 15:50 | 22.48575 | 51.76264 | 37826 ft | 496 kts | 272° |
| 2026-05-08 15:50 | 22.49128 | 51.68827 | 37822 ft | 496 kts | 272° |
| 2026-05-08 15:51 | 22.49678 | 51.61394 | 37817 ft | 496 kts | 271° |
| 2026-05-08 15:51 | 22.50224 | 51.53957 | 37823 ft | 496 kts | 271° |
| 2026-05-08 15:52 | 22.50766 | 51.46530 | 37833 ft | 495 kts | 271° |
| 2026-05-08 15:52 | 22.51303 | 51.39130 | 37824 ft | 497 kts | 271° |
| 2026-05-08 15:53 | 22.51840 | 51.31690 | 37826 ft | 496 kts | 271° |
| 2026-05-08 15:53 | 22.52372 | 51.24250 | 37824 ft | 496 kts | 271° |
| 2026-05-08 15:54 | 22.52903 | 51.16795 | 37828 ft | 495 kts | 271° |
| 2026-05-08 15:54 | 22.53427 | 51.09375 | 37824 ft | 496 kts | 271° |
| 2026-05-08 15:55 | 22.53862 | 51.03190 | 37835 ft | 496 kts | 271° |
| 2026-05-08 15:55 | 22.54639 | 50.92032 | 37833 ft | 496 kts | 271° |
| 2026-05-08 15:56 | 22.55153 | 50.84596 | 37834 ft | 496 kts | 271° |
| 2026-05-08 15:56 | 22.55664 | 50.77160 | 37835 ft | 495 kts | 271° |
| 2026-05-08 15:57 | 22.56171 | 50.69732 | 37836 ft | 495 kts | 271° |
| 2026-05-08 15:57 | 22.56674 | 50.62310 | 37835 ft | 494 kts | 271° |
| 2026-05-08 15:58 | 22.57172 | 50.54904 | 37837 ft | 493 kts | 271° |
| 2026-05-08 15:58 | 22.57666 | 50.47507 | 37836 ft | 492 kts | 271° |
| 2026-05-08 15:59 | 22.58153 | 50.40167 | 37842 ft | 491 kts | 271° |
| 2026-05-08 15:59 | 22.58638 | 50.32801 | 37843 ft | 490 kts | 271° |
| 2026-05-08 16:00 | 22.59120 | 50.25447 | 37841 ft | 490 kts | 271° |
| 2026-05-08 16:00 | 22.59597 | 50.18104 | 37843 ft | 489 kts | 271° |
| 2026-05-08 16:01 | 22.60070 | 50.10769 | 37840 ft | 488 kts | 270° |
| 2026-05-08 16:01 | 22.60540 | 50.03433 | 37843 ft | 489 kts | 270° |
| 2026-05-08 16:02 | 22.61006 | 49.96091 | 37844 ft | 489 kts | 270° |
| 2026-05-08 16:02 | 22.61469 | 49.88757 | 37845 ft | 488 kts | 270° |
| 2026-05-08 16:03 | 22.61926 | 49.81472 | 37848 ft | 488 kts | 270° |
| 2026-05-08 16:03 | 22.62383 | 49.74132 | 37842 ft | 488 kts | 270° |
| 2026-05-08 16:04 | 22.62836 | 49.66794 | 37843 ft | 488 kts | 270° |
| 2026-05-08 16:04 | 22.63285 | 49.59461 | 37847 ft | 489 kts | 270° |
| 2026-05-08 16:05 | 22.63733 | 49.52107 | 37844 ft | 488 kts | 270° |
| 2026-05-08 16:05 | 22.64176 | 49.44771 | 37845 ft | 488 kts | 270° |
| 2026-05-08 16:06 | 22.64615 | 49.37441 | 37849 ft | 488 kts | 270° |
| 2026-05-08 16:06 | 22.65050 | 49.30141 | 37843 ft | 488 kts | 270° |
| 2026-05-08 16:07 | 22.65485 | 49.22760 | 37846 ft | 489 kts | 270° |
| 2026-05-08 16:07 | 22.65914 | 49.15427 | 37843 ft | 488 kts | 270° |
| 2026-05-08 16:08 | 22.66338 | 49.08129 | 37848 ft | 488 kts | 270° |
| 2026-05-08 16:08 | 22.66761 | 49.00795 | 37848 ft | 487 kts | 270° |
| 2026-05-08 16:09 | 22.67180 | 48.93464 | 37847 ft | 488 kts | 269° |
| 2026-05-08 16:09 | 22.67596 | 48.86123 | 37851 ft | 487 kts | 269° |
| 2026-05-08 16:10 | 22.68008 | 48.78798 | 37854 ft | 487 kts | 269° |
| 2026-05-08 16:10 | 22.68416 | 48.71486 | 37854 ft | 487 kts | 269° |
| 2026-05-08 16:11 | 22.68821 | 48.64166 | 37854 ft | 486 kts | 269° |
| 2026-05-08 16:11 | 22.69222 | 48.56867 | 37855 ft | 486 kts | 269° |
| 2026-05-08 16:12 | 22.69617 | 48.49616 | 37859 ft | 485 kts | 269° |
| 2026-05-08 16:12 | 22.70011 | 48.42318 | 37856 ft | 485 kts | 269° |
| 2026-05-08 16:13 | 22.70400 | 48.35040 | 37860 ft | 484 kts | 269° |
| 2026-05-08 16:13 | 22.70786 | 48.27770 | 37855 ft | 483 kts | 269° |
| 2026-05-08 16:14 | 22.71168 | 48.20504 | 37855 ft | 483 kts | 269° |
| 2026-05-08 16:14 | 22.71547 | 48.13243 | 37859 ft | 482 kts | 269° |
| 2026-05-08 16:15 | 22.71922 | 48.05988 | 37859 ft | 482 kts | 269° |
| 2026-05-08 16:15 | 22.72293 | 47.98750 | 37859 ft | 481 kts | 269° |
| 2026-05-08 16:16 | 22.72660 | 47.91525 | 37864 ft | 481 kts | 269° |
| 2026-05-08 16:16 | 22.73024 | 47.84294 | 37861 ft | 480 kts | 269° |
| 2026-05-08 16:17 | 22.73323 | 47.78296 | 37866 ft | 479 kts | 269° |
| 2026-05-08 16:17 | 22.73740 | 47.69877 | 37872 ft | 478 kts | 269° |
| 2026-05-08 16:18 | 22.74092 | 47.62680 | 37875 ft | 478 kts | 269° |
| 2026-05-08 16:18 | 22.74439 | 47.55538 | 37877 ft | 477 kts | 269° |
| 2026-05-08 16:19 | 22.74787 | 47.48357 | 37881 ft | 476 kts | 269° |
| 2026-05-08 16:19 | 22.75131 | 47.41195 | 37889 ft | 475 kts | 269° |
| 2026-05-08 16:20 | 22.75471 | 47.34050 | 37887 ft | 475 kts | 269° |
| 2026-05-08 16:20 | 22.75798 | 47.27129 | 37890 ft | 474 kts | 269° |
| 2026-05-08 16:21 | 22.76132 | 47.19992 | 37897 ft | 473 kts | 268° |
| 2026-05-08 16:21 | 22.76540 | 47.12915 | 37895 ft | 474 kts | 270° |
| 2026-05-08 16:22 | 22.77143 | 47.05799 | 37895 ft | 474 kts | 270° |
| 2026-05-08 16:22 | 22.77727 | 46.98695 | 37902 ft | 473 kts | 270° |
| 2026-05-08 16:23 | 22.78288 | 46.91602 | 37903 ft | 473 kts | 270° |
| 2026-05-08 16:23 | 22.78841 | 46.84505 | 37906 ft | 472 kts | 270° |
| 2026-05-08 16:24 | 22.79392 | 46.77403 | 37910 ft | 472 kts | 270° |
| 2026-05-08 16:24 | 22.79938 | 46.70325 | 37911 ft | 471 kts | 270° |
| 2026-05-08 16:25 | 22.80481 | 46.63244 | 37915 ft | 471 kts | 270° |
| 2026-05-08 16:25 | 22.81021 | 46.56168 | 37916 ft | 470 kts | 270° |
| 2026-05-08 16:26 | 22.81557 | 46.49096 | 37920 ft | 470 kts | 270° |
| 2026-05-08 16:26 | 22.82090 | 46.42031 | 37919 ft | 470 kts | 270° |
| 2026-05-08 16:27 | 22.82618 | 46.34968 | 37928 ft | 471 kts | 270° |
| 2026-05-08 16:27 | 22.82880 | 46.31408 | 38325 ft | 472 kts | 270° |
| 2026-05-08 16:27 | 22.83142 | 46.27907 | 39174 ft | 461 kts | 270° |
| 2026-05-08 16:28 | 22.83395 | 46.24520 | 39636 ft | 451 kts | 269° |
| 2026-05-08 16:28 | 22.83644 | 46.21174 | 39842 ft | 442 kts | 269° |
| 2026-05-08 16:28 | 22.84126 | 46.14547 | 39910 ft | 442 kts | 269° |
| 2026-05-08 16:29 | 22.84608 | 46.07802 | 39907 ft | 457 kts | 269° |
| 2026-05-08 16:29 | 22.85111 | 46.00810 | 39900 ft | 465 kts | 269° |
| 2026-05-08 16:30 | 22.85366 | 45.97377 | 39898 ft | 449 kts | 269° |
| 2026-05-08 16:30 | 22.85612 | 45.94054 | 39779 ft | 437 kts | 269° |
| 2026-05-08 16:30 | 22.85847 | 45.90780 | 39217 ft | 435 kts | 269° |
| 2026-05-08 16:30 | 22.86077 | 45.87511 | 38564 ft | 436 kts | 269° |
| 2026-05-08 16:31 | 22.86308 | 45.84226 | 37762 ft | 437 kts | 269° |
| 2026-05-08 16:31 | 22.86539 | 45.80933 | 36866 ft | 441 kts | 269° |
| 2026-05-08 16:31 | 22.86772 | 45.77615 | 36221 ft | 441 kts | 269° |
| 2026-05-08 16:31 | 22.87006 | 45.74297 | 35982 ft | 445 kts | 269° |
| 2026-05-08 16:32 | 22.87477 | 45.67564 | 35876 ft | 451 kts | 269° |
| 2026-05-08 16:32 | 22.87717 | 45.64180 | 35581 ft | 448 kts | 269° |
| 2026-05-08 16:32 | 22.87953 | 45.60811 | 34845 ft | 449 kts | 269° |
| 2026-05-08 16:33 | 22.88188 | 45.57418 | 34253 ft | 451 kts | 269° |
| 2026-05-08 16:33 | 22.88423 | 45.54013 | 34017 ft | 456 kts | 269° |
| 2026-05-08 16:33 | 22.88660 | 45.50519 | 33908 ft | 470 kts | 269° |
| 2026-05-08 16:33 | 22.88903 | 45.46947 | 33903 ft | 481 kts | 269° |
| 2026-05-08 16:34 | 22.89405 | 45.39655 | 33900 ft | 485 kts | 269° |
| 2026-05-08 16:34 | 22.89907 | 45.32358 | 33908 ft | 485 kts | 269° |
| 2026-05-08 16:35 | 22.90155 | 45.28730 | 33902 ft | 474 kts | 269° |
| 2026-05-08 16:35 | 22.90398 | 45.25217 | 33910 ft | 462 kts | 269° |
| 2026-05-08 16:35 | 22.90860 | 45.18295 | 33912 ft | 461 kts | 269° |
| 2026-05-08 16:36 | 22.91319 | 45.11352 | 33909 ft | 462 kts | 269° |
| 2026-05-08 16:36 | 22.91777 | 45.04443 | 33912 ft | 462 kts | 269° |
| 2026-05-08 16:37 | 22.92232 | 44.97496 | 33928 ft | 461 kts | 269° |
| 2026-05-08 16:37 | 22.92684 | 44.90577 | 33906 ft | 459 kts | 269° |
| 2026-05-08 16:38 | 22.93131 | 44.83674 | 33900 ft | 458 kts | 269° |
| 2026-05-08 16:38 | 22.93574 | 44.76797 | 33884 ft | 457 kts | 269° |
| 2026-05-08 16:39 | 22.94061 | 44.69919 | 33877 ft | 458 kts | 271° |
| 2026-05-08 16:39 | 22.95413 | 44.63104 | 33872 ft | 467 kts | 281° |
| 2026-05-08 16:40 | 22.97498 | 44.56415 | 33880 ft | 468 kts | 282° |
| 2026-05-08 16:40 | 22.99217 | 44.50835 | 33879 ft | 468 kts | 282° |
| 2026-05-08 16:41 | 23.01280 | 44.44124 | 33879 ft | 468 kts | 282° |
| 2026-05-08 16:42 | 23.04373 | 44.34062 | 33890 ft | 469 kts | 282° |
| 2026-05-08 16:42 | 23.06435 | 44.27343 | 33898 ft | 469 kts | 282° |
| 2026-05-08 16:43 | 23.08496 | 44.20615 | 33906 ft | 469 kts | 282° |
| 2026-05-08 16:43 | 23.10557 | 44.13875 | 33965 ft | 474 kts | 282° |
| 2026-05-08 16:43 | 23.11595 | 44.10471 | 34400 ft | 474 kts | 282° |
| 2026-05-08 16:44 | 23.12620 | 44.07123 | 35080 ft | 470 kts | 281° |
| 2026-05-08 16:44 | 23.13646 | 44.03767 | 35709 ft | 466 kts | 281° |
| 2026-05-08 16:44 | 23.14665 | 44.00430 | 36300 ft | 463 kts | 281° |
| 2026-05-08 16:44 | 23.15676 | 43.97107 | 36919 ft | 460 kts | 281° |
| 2026-05-08 16:45 | 23.16676 | 43.93820 | 37531 ft | 458 kts | 281° |
| 2026-05-08 16:45 | 23.17690 | 43.90476 | 37883 ft | 461 kts | 281° |
| 2026-05-08 16:45 | 23.18669 | 43.87257 | 37955 ft | 451 kts | 281° |
| 2026-05-08 16:46 | 23.20626 | 43.80800 | 37959 ft | 451 kts | 281° |
| 2026-05-08 16:46 | 23.22583 | 43.74323 | 37964 ft | 451 kts | 281° |
| 2026-05-08 16:47 | 23.24548 | 43.67826 | 37970 ft | 451 kts | 280° |
| 2026-05-08 16:47 | 23.26505 | 43.61341 | 37972 ft | 450 kts | 280° |
| 2026-05-08 16:48 | 23.28454 | 43.54874 | 37975 ft | 450 kts | 280° |
| 2026-05-08 16:48 | 23.30400 | 43.48403 | 37985 ft | 449 kts | 280° |
| 2026-05-08 16:49 | 23.32339 | 43.41949 | 37980 ft | 449 kts | 280° |
| 2026-05-08 16:49 | 23.34277 | 43.35486 | 37978 ft | 448 kts | 280° |
| 2026-05-08 16:50 | 23.36196 | 43.29077 | 37985 ft | 448 kts | 280° |
| 2026-05-08 16:50 | 23.38120 | 43.22637 | 37987 ft | 447 kts | 280° |
| 2026-05-08 16:51 | 23.40042 | 43.16192 | 37986 ft | 447 kts | 280° |
| 2026-05-08 16:51 | 23.41960 | 43.09746 | 37984 ft | 447 kts | 280° |
| 2026-05-08 16:52 | 23.43871 | 43.03304 | 37989 ft | 448 kts | 279° |
| 2026-05-08 16:52 | 23.45783 | 42.96843 | 37998 ft | 448 kts | 279° |
| 2026-05-08 16:53 | 23.48653 | 42.87135 | 38011 ft | 449 kts | 279° |
| 2026-05-08 16:53 | 23.50560 | 42.80667 | 38014 ft | 449 kts | 279° |
| 2026-05-08 16:54 | 23.52469 | 42.74184 | 38013 ft | 449 kts | 279° |
| 2026-05-08 16:54 | 23.54381 | 42.67696 | 38022 ft | 450 kts | 279° |
| 2026-05-08 16:55 | 23.56292 | 42.61201 | 38023 ft | 450 kts | 279° |
| 2026-05-08 16:55 | 23.58200 | 42.54705 | 38028 ft | 450 kts | 279° |
| 2026-05-08 16:56 | 23.60103 | 42.48213 | 38026 ft | 450 kts | 279° |
| 2026-05-08 16:56 | 23.62009 | 42.41701 | 38026 ft | 450 kts | 279° |
| 2026-05-08 16:57 | 23.63912 | 42.35188 | 38028 ft | 451 kts | 279° |
| 2026-05-08 16:57 | 23.65813 | 42.28669 | 38026 ft | 451 kts | 278° |
| 2026-05-08 16:58 | 23.67709 | 42.22139 | 38024 ft | 451 kts | 278° |
| 2026-05-08 16:58 | 23.69590 | 42.15644 | 38027 ft | 452 kts | 278° |
| 2026-05-08 16:59 | 23.71481 | 42.09102 | 38026 ft | 452 kts | 278° |
| 2026-05-08 16:59 | 23.73374 | 42.02545 | 38027 ft | 453 kts | 278° |
| 2026-05-08 17:00 | 23.75265 | 41.95991 | 38024 ft | 453 kts | 278° |
| 2026-05-08 17:00 | 23.77160 | 41.89436 | 38022 ft | 453 kts | 278° |
| 2026-05-08 17:01 | 23.79054 | 41.82872 | 38025 ft | 452 kts | 278° |
| 2026-05-08 17:01 | 23.80940 | 41.76326 | 38026 ft | 452 kts | 278° |
| 2026-05-08 17:02 | 23.82813 | 41.69806 | 38024 ft | 452 kts | 278° |
| 2026-05-08 17:02 | 23.84686 | 41.63270 | 38034 ft | 451 kts | 277° |
| 2026-05-08 17:03 | 23.86555 | 41.56740 | 38014 ft | 450 kts | 277° |
| 2026-05-08 17:03 | 23.88415 | 41.50205 | 38002 ft | 450 kts | 277° |
| 2026-05-08 17:04 | 23.90270 | 41.43668 | 37959 ft | 449 kts | 277° |
| 2026-05-08 17:04 | 23.91193 | 41.40419 | 37731 ft | 444 kts | 277° |
| 2026-05-08 17:04 | 23.92105 | 41.37205 | 37466 ft | 442 kts | 277° |
| 2026-05-08 17:05 | 23.93013 | 41.33992 | 37203 ft | 443 kts | 277° |
| 2026-05-08 17:05 | 23.93924 | 41.30767 | 36958 ft | 445 kts | 277° |
| 2026-05-08 17:05 | 23.94839 | 41.27539 | 36523 ft | 444 kts | 278° |
| 2026-05-08 17:05 | 23.95753 | 41.24307 | 35720 ft | 447 kts | 278° |
| 2026-05-08 17:06 | 23.96675 | 41.21035 | 34666 ft | 454 kts | 278° |
| 2026-05-08 17:06 | 23.97609 | 41.17720 | 33687 ft | 458 kts | 279° |
| 2026-05-08 17:06 | 23.98551 | 41.14395 | 32975 ft | 454 kts | 279° |
| 2026-05-08 17:06 | 23.99480 | 41.11132 | 32561 ft | 444 kts | 279° |
| 2026-05-08 17:07 | 24.00385 | 41.07950 | 32258 ft | 433 kts | 279° |
| 2026-05-08 17:07 | 24.01267 | 41.04826 | 31723 ft | 428 kts | 280° |
| 2026-05-08 17:07 | 24.02136 | 41.01732 | 31205 ft | 423 kts | 280° |
| 2026-05-08 17:07 | 24.02986 | 40.98704 | 30690 ft | 419 kts | 280° |
| 2026-05-08 17:08 | 24.03835 | 40.95672 | 30169 ft | 416 kts | 281° |
| 2026-05-08 17:08 | 24.04680 | 40.92659 | 29603 ft | 412 kts | 281° |
| 2026-05-08 17:08 | 24.05516 | 40.89681 | 29113 ft | 406 kts | 281° |
| 2026-05-08 17:08 | 24.06339 | 40.86750 | 28596 ft | 401 kts | 281° |
| 2026-05-08 17:09 | 24.07150 | 40.83856 | 28112 ft | 396 kts | 281° |
| 2026-05-08 17:09 | 24.07951 | 40.80994 | 27624 ft | 391 kts | 282° |
| 2026-05-08 17:09 | 24.08744 | 40.78156 | 27141 ft | 387 kts | 282° |
| 2026-05-08 17:09 | 24.09527 | 40.75355 | 26643 ft | 384 kts | 282° |
| 2026-05-08 17:10 | 24.10304 | 40.72568 | 26173 ft | 380 kts | 282° |
| 2026-05-08 17:10 | 24.11073 | 40.69813 | 25703 ft | 377 kts | 282° |
| 2026-05-08 17:10 | 24.11836 | 40.67075 | 25243 ft | 374 kts | 283° |
| 2026-05-08 17:10 | 24.12592 | 40.64361 | 24782 ft | 371 kts | 283° |
| 2026-05-08 17:11 | 24.13342 | 40.61666 | 24334 ft | 369 kts | 283° |
| 2026-05-08 17:11 | 24.14085 | 40.58991 | 23872 ft | 367 kts | 283° |
| 2026-05-08 17:11 | 24.14825 | 40.56330 | 23398 ft | 365 kts | 284° |
| 2026-05-08 17:11 | 24.15624 | 40.53698 | 22934 ft | 363 kts | 289° |
| 2026-05-08 17:12 | 24.16802 | 40.51265 | 22475 ft | 364 kts | 299° |
| 2026-05-08 17:12 | 24.18380 | 40.49087 | 22031 ft | 368 kts | 309° |
| 2026-05-08 17:12 | 24.20222 | 40.47140 | 21569 ft | 367 kts | 311° |
| 2026-05-08 17:12 | 24.22056 | 40.45189 | 21105 ft | 366 kts | 311° |
| 2026-05-08 17:13 | 24.23868 | 40.43241 | 20642 ft | 365 kts | 310° |
| 2026-05-08 17:13 | 24.25673 | 40.41295 | 20192 ft | 364 kts | 310° |
| 2026-05-08 17:13 | 24.27474 | 40.39354 | 19733 ft | 363 kts | 310° |
| 2026-05-08 17:13 | 24.29247 | 40.37444 | 19287 ft | 362 kts | 310° |
| 2026-05-08 17:14 | 24.31065 | 40.35486 | 18830 ft | 361 kts | 310° |
| 2026-05-08 17:14 | 24.32832 | 40.33584 | 18378 ft | 361 kts | 310° |
| 2026-05-08 17:14 | 24.34619 | 40.31659 | 17900 ft | 359 kts | 310° |
| 2026-05-08 17:14 | 24.36397 | 40.29743 | 17447 ft | 357 kts | 310° |
| 2026-05-08 17:15 | 24.38158 | 40.27845 | 16990 ft | 354 kts | 311° |
| 2026-05-08 17:15 | 24.39909 | 40.25957 | 16549 ft | 352 kts | 311° |
| 2026-05-08 17:15 | 24.41653 | 40.24076 | 16114 ft | 349 kts | 311° |
| 2026-05-08 17:15 | 24.43381 | 40.22210 | 15668 ft | 347 kts | 311° |
| 2026-05-08 17:16 | 24.45100 | 40.20354 | 15223 ft | 345 kts | 311° |
| 2026-05-08 17:16 | 24.46807 | 40.18510 | 14793 ft | 343 kts | 311° |
| 2026-05-08 17:16 | 24.48493 | 40.16689 | 14576 ft | 334 kts | 311° |
| 2026-05-08 17:16 | 24.50125 | 40.14930 | 14469 ft | 322 kts | 311° |
| 2026-05-08 17:17 | 24.51695 | 40.13236 | 14375 ft | 311 kts | 311° |
| 2026-05-08 17:17 | 24.53208 | 40.11601 | 14282 ft | 300 kts | 311° |
| 2026-05-08 17:17 | 24.54676 | 40.10012 | 14024 ft | 296 kts | 311° |
| 2026-05-08 17:17 | 24.56119 | 40.08445 | 13801 ft | 293 kts | 311° |
| 2026-05-08 17:18 | 24.57561 | 40.06881 | 13541 ft | 290 kts | 311° |
| 2026-05-08 17:18 | 24.58801 | 40.05148 | 13274 ft | 282 kts | 291° |
| 2026-05-08 17:18 | 24.59233 | 40.03132 | 13033 ft | 274 kts | 266° |
| 2026-05-08 17:18 | 24.58977 | 40.01058 | 12785 ft | 270 kts | 258° |
| 2026-05-08 17:19 | 24.58676 | 39.99048 | 12535 ft | 269 kts | 259° |
| 2026-05-08 17:19 | 24.58395 | 39.97025 | 12286 ft | 268 kts | 259° |
| 2026-05-08 17:19 | 24.58130 | 39.95001 | 12067 ft | 267 kts | 260° |
| 2026-05-08 17:19 | 24.57871 | 39.92982 | 11820 ft | 268 kts | 260° |
| 2026-05-08 17:20 | 24.57614 | 39.90964 | 11646 ft | 262 kts | 260° |
| 2026-05-08 17:20 | 24.57367 | 39.89018 | 11562 ft | 252 kts | 260° |
| 2026-05-08 17:20 | 24.57130 | 39.87152 | 11474 ft | 243 kts | 260° |
| 2026-05-08 17:20 | 24.56891 | 39.85324 | 11238 ft | 241 kts | 257° |
| 2026-05-08 17:21 | 24.56220 | 39.83678 | 10997 ft | 239 kts | 230° |
| 2026-05-08 17:21 | 24.54884 | 39.82612 | 10768 ft | 242 kts | 202° |
| 2026-05-08 17:21 | 24.53219 | 39.82381 | 10528 ft | 246 kts | 175° |
| 2026-05-08 17:21 | 24.51526 | 39.82773 | 10324 ft | 248 kts | 171° |
| 2026-05-08 17:22 | 24.49869 | 39.83146 | 10239 ft | 239 kts | 172° |
| 2026-05-08 17:22 | 24.48271 | 39.83489 | 10160 ft | 231 kts | 173° |
| 2026-05-08 17:22 | 24.46688 | 39.83820 | 9945 ft | 230 kts | 173° |
| 2026-05-08 17:22 | 24.45116 | 39.84148 | 9833 ft | 229 kts | 173° |
| 2026-05-08 17:23 | 24.43546 | 39.84477 | 9705 ft | 229 kts | 173° |
| 2026-05-08 17:23 | 24.41979 | 39.84808 | 9574 ft | 229 kts | 173° |
| 2026-05-08 17:23 | 24.40417 | 39.85138 | 9446 ft | 229 kts | 173° |
| 2026-05-08 17:23 | 24.38875 | 39.85464 | 9321 ft | 229 kts | 173° |
| 2026-05-08 17:24 | 24.37322 | 39.85793 | 9203 ft | 228 kts | 173° |
| 2026-05-08 17:24 | 24.35804 | 39.86117 | 9129 ft | 216 kts | 173° |
| 2026-05-08 17:24 | 24.34396 | 39.86420 | 8907 ft | 198 kts | 173° |
| 2026-05-08 17:24 | 24.33031 | 39.86709 | 8776 ft | 202 kts | 173° |
| 2026-05-08 17:25 | 24.31637 | 39.86998 | 8659 ft | 203 kts | 173° |
| 2026-05-08 17:25 | 24.30303 | 39.87281 | 8535 ft | 189 kts | 173° |
| 2026-05-08 17:25 | 24.29440 | 39.87464 | 8380 ft | 187 kts | 173° |
| 2026-05-08 17:25 | 24.28173 | 39.87730 | 8242 ft | 188 kts | 173° |
| 2026-05-08 17:26 | 24.26890 | 39.88001 | 8137 ft | 188 kts | 174° |
| 2026-05-08 17:26 | 24.25601 | 39.88270 | 8029 ft | 188 kts | 174° |
| 2026-05-08 17:26 | 24.24319 | 39.88538 | 7889 ft | 188 kts | 174° |
| 2026-05-08 17:26 | 24.23033 | 39.88807 | 7782 ft | 188 kts | 173° |
| 2026-05-08 17:27 | 24.21751 | 39.88925 | 7635 ft | 182 kts | 195° |
| 2026-05-08 17:27 | 24.20690 | 39.88264 | 7532 ft | 176 kts | 230° |
| 2026-05-08 17:27 | 24.20189 | 39.87083 | 7423 ft | 174 kts | 259° |
| 2026-05-08 17:27 | 24.20015 | 39.85763 | 7319 ft | 174 kts | 259° |
| 2026-05-08 17:28 | 24.19788 | 39.84456 | 7207 ft | 174 kts | 258° |
| 2026-05-08 17:28 | 24.19546 | 39.83155 | 7087 ft | 174 kts | 258° |
| 2026-05-08 17:28 | 24.19308 | 39.81852 | 6974 ft | 174 kts | 258° |
| 2026-05-08 17:28 | 24.19106 | 39.80548 | 6845 ft | 174 kts | 267° |
| 2026-05-08 17:29 | 24.19451 | 39.79291 | 6727 ft | 179 kts | 304° |
| 2026-05-08 17:29 | 24.20440 | 39.78449 | 6616 ft | 184 kts | 330° |
| 2026-05-08 17:29 | 24.21665 | 39.77997 | 6503 ft | 187 kts | 341° |
| 2026-05-08 17:29 | 24.22942 | 39.77701 | 6380 ft | 188 kts | 345° |
| 2026-05-08 17:30 | 24.24224 | 39.77435 | 6241 ft | 188 kts | 345° |
| 2026-05-08 17:30 | 24.25489 | 39.77164 | 6068 ft | 187 kts | 344° |
| 2026-05-08 17:30 | 24.26781 | 39.76889 | 6034 ft | 187 kts | 344° |
| 2026-05-08 17:30 | 24.28045 | 39.76621 | 6035 ft | 188 kts | 345° |
| 2026-05-08 17:31 | 24.29316 | 39.76353 | 6007 ft | 184 kts | 345° |
| 2026-05-08 17:31 | 24.30561 | 39.76088 | 5771 ft | 181 kts | 344° |
| 2026-05-08 17:31 | 24.31793 | 39.75825 | 5437 ft | 181 kts | 344° |
| 2026-05-08 17:31 | 24.33041 | 39.75561 | 5304 ft | 184 kts | 344° |
| 2026-05-08 17:32 | 24.34295 | 39.75294 | 5152 ft | 184 kts | 345° |
| 2026-05-08 17:32 | 24.35548 | 39.75028 | 4943 ft | 183 kts | 344° |
| 2026-05-08 17:32 | 24.36791 | 39.74764 | 4795 ft | 178 kts | 344° |
| 2026-05-08 17:32 | 24.37953 | 39.74522 | 4677 ft | 162 kts | 344° |
| 2026-05-08 17:33 | 24.39040 | 39.74288 | 4537 ft | 159 kts | 344° |
| 2026-05-08 17:33 | 24.40129 | 39.74054 | 4546 ft | 158 kts | 344° |
| 2026-05-08 17:33 | 24.41188 | 39.73830 | 4507 ft | 155 kts | 344° |
| 2026-05-08 17:33 | 24.42244 | 39.73605 | 4307 ft | 154 kts | 343° |
| 2026-05-08 17:34 | 24.43294 | 39.73382 | 4122 ft | 153 kts | 343° |
| 2026-05-08 17:34 | 24.44330 | 39.73163 | 3929 ft | 152 kts | 344° |
| 2026-05-08 17:34 | 24.45369 | 39.72941 | 3760 ft | 151 kts | 345° |
| 2026-05-08 17:34 | 24.46398 | 39.72723 | 3554 ft | 150 kts | 345° |
| 2026-05-08 17:35 | 24.47427 | 39.72502 | 3382 ft | 151 kts | 345° |
| 2026-05-08 17:35 | 24.48452 | 39.72285 | 3195 ft | 148 kts | 343° |
| 2026-05-08 17:35 | 24.49423 | 39.72076 | 3014 ft | 146 kts | 344° |
| 2026-05-08 17:35 | 24.50428 | 39.71864 | 2815 ft | 150 kts | 346° |
| 2026-05-08 17:36 | 24.51436 | 39.71654 | 2601 ft | 148 kts | 347° |
| 2026-05-08 17:36 | 24.52453 | 39.71434 | 2404 ft | 148 kts | 345° |
| 2026-05-08 17:36 | 24.53449 | 39.71218 | 2202 ft | 143 kts | 345° |
| 2026-05-08 17:36 | 24.54396 | 39.71028 | 2091 ft | 124 kts | 347° |
| 2026-05-08 17:37 | 24.55096 | 39.70868 | 2102 ft | 84 kts | 350° |
| 2026-05-08 17:37 | 24.55585 | 39.70767 | 2108 ft | 60 kts | 350° |
| 2026-05-08 17:37 | 24.55935 | 39.70691 | 2117 ft | 44 kts | 349° |
| 2026-05-08 17:37 | 24.56187 | 39.70643 | 2129 ft | 30 kts | 349° |
| 2026-05-08 17:38 | 24.56374 | 39.70607 | 2127 ft | 25 kts | 354° |
| 2026-05-08 17:38 | 24.56539 | 39.70621 | 2131 ft | 23 kts | 14° |
| 2026-05-08 17:38 | 24.56627 | 39.70651 | 2131 ft | 0 kts | 18° |
| 2026-05-08 17:39 | 24.56629 | 39.70652 | 2131 ft | 2 kts | 18° |
| 2026-05-08 17:39 | 24.56659 | 39.70665 | 2131 ft | 6 kts | 32° |
| 2026-05-08 17:39 | 24.56681 | 39.70699 | 2131 ft | 2 kts | 96° |
| 2026-05-08 17:40 | 24.56673 | 39.70717 | 2131 ft | 2 kts | 139° |
| 2026-05-08 17:40 | 24.56642 | 39.70734 | 2131 ft | 8 kts | 159° |
| 2026-05-08 17:40 | 24.56571 | 39.70751 | 2130 ft | 13 kts | 169° |
| 2026-05-08 17:40 | 24.56544 | 39.70757 | 2130 ft | 0 kts | 169° |
| 2026-05-08 17:42 | 24.56543 | 39.70757 | 2130 ft | 1 kts | 169° |
| 2026-05-08 17:42 | 24.56511 | 39.70764 | 2130 ft | 8 kts | 169° |
| 2026-05-08 17:42 | 24.56439 | 39.70779 | 2129 ft | 13 kts | 169° |
| 2026-05-08 17:43 | 24.56335 | 39.70801 | 2128 ft | 17 kts | 169° |
| 2026-05-08 17:43 | 24.56201 | 39.70829 | 2128 ft | 22 kts | 169° |
| 2026-05-08 17:43 | 24.56073 | 39.70857 | 2122 ft | 0 kts | 168° |
| 2026-05-08 17:43 | 24.56048 | 39.70862 | 2121 ft | 7 kts | 168° |
| 2026-05-08 17:44 | 24.55995 | 39.70883 | 2120 ft | 4 kts | 114° |
| 2026-05-08 17:44 | 24.55995 | 39.70900 | 2120 ft | 4 kts | 76° |
| 2026-05-08 17:44 | 24.56005 | 39.70948 | 2121 ft | 9 kts | 78° |
| 2026-05-08 17:44 | 24.56019 | 39.71032 | 2124 ft | 7 kts | 90° |
| 2026-05-08 17:45 | 24.56017 | 39.71042 | 2125 ft | 1 kts | 121° |
| 2026-05-08 17:45 | 24.56006 | 39.71054 | 2123 ft | 2 kts | 149° |
| 2026-05-08 17:45 | 24.55965 | 39.71072 | 2120 ft | 10 kts | 161° |
| 2026-05-08 17:45 | 24.55881 | 39.71096 | 2120 ft | 15 kts | 169° |
| 2026-05-08 17:46 | 24.55772 | 39.71117 | 2116 ft | 19 kts | 169° |
| 2026-05-08 17:46 | 24.55681 | 39.71136 | 2114 ft | 0 kts | 166° |
| 2026-05-08 17:46 | 24.55655 | 39.71142 | 2113 ft | 7 kts | 166° |
| 2026-05-08 17:46 | 24.55614 | 39.71153 | 2112 ft | 2 kts | 166° |
| 2026-05-08 17:47 | 24.55577 | 39.71162 | 2112 ft | 9 kts | 169° |
| 2026-05-08 17:47 | 24.55539 | 39.71174 | 2111 ft | 0 kts | 121° |
| 2026-05-08 17:47 | 24.55539 | 39.71175 | 2111 ft | 0 kts | 121° |
| 2026-05-08 17:48 | 24.55536 | 39.71179 | 2111 ft | 1 kts | 104° |
| 2026-05-08 17:48 | 24.55535 | 39.71193 | 2111 ft | 4 kts | 97° |
| 2026-05-08 17:48 | 24.55535 | 39.71222 | 2111 ft | 1 kts | 79° |
| 2026-05-08 17:49 | 24.55539 | 39.71244 | 2111 ft | 0 kts | 79° |
| 2026-05-08 17:50 | 24.55539 | 39.71245 | 2111 ft | 1 kts | 79° |
| 2026-05-08 17:50 | 24.55542 | 39.71260 | 2111 ft | 4 kts | 79° |
| 2026-05-08 17:50 | 24.55543 | 39.71268 | 2111 ft | 1 kts | 79° |
| 2026-05-08 17:50 | 24.55544 | 39.71270 | 2111 ft | 1 kts | 79° |
| 2026-05-08 17:51 | 24.55545 | 39.71276 | 2111 ft | 0 kts | 79° |
| 2026-05-08 17:51 | 24.55545 | 39.71278 | 2111 ft | 0 kts | 79° |
| 2026-05-08 17:51 | 24.55546 | 39.71281 | 2111 ft | 0 kts | 79° |